<?xml version="1.0" encoding="UTF-8" standalone="no" ?>
<gpx xmlns="http://www.topografix.com/GPX/1/1" xmlns:xsi="http://www.w3.org/2001/XMLSchema-instance" xsi:schemaLocation="http://www.topografix.com/GPX/1/1 http://www.topografix.com/GPX/1/1/gpx.xsd" version="1.1" creator="VisuGPX - https://www.visugpx.com">
  <metadata>
    <name>RSPFY-entre Sainte-Mesme et Corbreuse</name>
    <desc><![CDATA[marche nordique au départ du parking de la mairie à Sainte-Mesme et passant par Corbreuse.]]></desc>
  </metadata>
  <trk>
    <name><![CDATA[2025-04-03 08:59]]></name>
    <desc><![CDATA[<p>Heure de départ: 08:59 3 avr. 2025<br/>Heure d'arrivée: 11:43 3 avr. 2025<br/>Distance: 13,2 km (02:44)<br/>Temps déplacement: 02:28<br/>Vitesse moyenne: 4,8 km/h<br/>Vitesse moyenne mouv.: 5,31 km/h<br/>Vitesse Max.: 8,27 km/h<br/>Altitude minimale: 101 m<br/>Altitude maximale: 163 m<br/>Vitesse de montée: 170,7 m/h<br/>Vitesse de descente: -179 m/h<br/>Gain d'altitude: 229 m<br/>Perte d'altitude: -229 m<br/>Temps de montée: 01:20<br/>Temps de descente: 01:16<br/></p><hr align="center" width="480" style="height: 2px; width: 517px"/>]]></desc>
    <trkseg>
      <trkpt lat="48.53112" lon="1.96126">
        <ele>108</ele>
        <time>2025-04-03T06:59:01Z</time>
      </trkpt>
      <trkpt lat="48.53115" lon="1.9614">
        <ele>108.1</ele>
        <time>2025-04-03T06:59:39Z</time>
      </trkpt>
      <trkpt lat="48.53116" lon="1.96155">
        <ele>108.2</ele>
        <time>2025-04-03T06:59:48Z</time>
      </trkpt>
      <trkpt lat="48.53111" lon="1.96167">
        <ele>107.9</ele>
        <time>2025-04-03T07:00:31Z</time>
      </trkpt>
      <trkpt lat="48.53109" lon="1.96181">
        <ele>107.3</ele>
        <time>2025-04-03T07:00:41Z</time>
      </trkpt>
      <trkpt lat="48.53109" lon="1.96195">
        <ele>106.8</ele>
        <time>2025-04-03T07:00:50Z</time>
      </trkpt>
      <trkpt lat="48.53103" lon="1.96206">
        <ele>106.1</ele>
        <time>2025-04-03T07:01:40Z</time>
      </trkpt>
      <trkpt lat="48.53105" lon="1.96221">
        <ele>105.8</ele>
        <time>2025-04-03T07:01:50Z</time>
      </trkpt>
      <trkpt lat="48.53106" lon="1.96236">
        <ele>105.8</ele>
        <time>2025-04-03T07:02:00Z</time>
      </trkpt>
      <trkpt lat="48.53104" lon="1.96249">
        <ele>105.8</ele>
        <time>2025-04-03T07:02:08Z</time>
      </trkpt>
      <trkpt lat="48.53099" lon="1.96262">
        <ele>105.3</ele>
        <time>2025-04-03T07:02:16Z</time>
      </trkpt>
      <trkpt lat="48.5309" lon="1.96262">
        <ele>105.1</ele>
        <time>2025-04-03T07:02:24Z</time>
      </trkpt>
      <trkpt lat="48.53081" lon="1.9626">
        <ele>105</ele>
        <time>2025-04-03T07:02:31Z</time>
      </trkpt>
      <trkpt lat="48.53071" lon="1.96257">
        <ele>104.9</ele>
        <time>2025-04-03T07:02:39Z</time>
      </trkpt>
      <trkpt lat="48.53063" lon="1.96248">
        <ele>105</ele>
        <time>2025-04-03T07:02:47Z</time>
      </trkpt>
      <trkpt lat="48.53061" lon="1.96234">
        <ele>105</ele>
        <time>2025-04-03T07:02:55Z</time>
      </trkpt>
      <trkpt lat="48.53052" lon="1.96233">
        <ele>104.9</ele>
        <time>2025-04-03T07:03:04Z</time>
      </trkpt>
      <trkpt lat="48.53042" lon="1.96233">
        <ele>104.5</ele>
        <time>2025-04-03T07:03:11Z</time>
      </trkpt>
      <trkpt lat="48.53033" lon="1.9623">
        <ele>104.2</ele>
        <time>2025-04-03T07:03:17Z</time>
      </trkpt>
      <trkpt lat="48.53023" lon="1.96227">
        <ele>104</ele>
        <time>2025-04-03T07:03:24Z</time>
      </trkpt>
      <trkpt lat="48.53014" lon="1.96223">
        <ele>104</ele>
        <time>2025-04-03T07:03:31Z</time>
      </trkpt>
      <trkpt lat="48.53004" lon="1.9622">
        <ele>104</ele>
        <time>2025-04-03T07:03:38Z</time>
      </trkpt>
      <trkpt lat="48.52994" lon="1.96217">
        <ele>104.2</ele>
        <time>2025-04-03T07:03:45Z</time>
      </trkpt>
      <trkpt lat="48.52985" lon="1.96213">
        <ele>104.6</ele>
        <time>2025-04-03T07:03:53Z</time>
      </trkpt>
      <trkpt lat="48.52975" lon="1.96209">
        <ele>104.9</ele>
        <time>2025-04-03T07:04:00Z</time>
      </trkpt>
      <trkpt lat="48.52965" lon="1.96205">
        <ele>105.4</ele>
        <time>2025-04-03T07:04:07Z</time>
      </trkpt>
      <trkpt lat="48.52956" lon="1.96202">
        <ele>106</ele>
        <time>2025-04-03T07:04:14Z</time>
      </trkpt>
      <trkpt lat="48.52947" lon="1.96199">
        <ele>106.7</ele>
        <time>2025-04-03T07:04:21Z</time>
      </trkpt>
      <trkpt lat="48.52938" lon="1.96194">
        <ele>107</ele>
        <time>2025-04-03T07:04:28Z</time>
      </trkpt>
      <trkpt lat="48.52929" lon="1.96191">
        <ele>107</ele>
        <time>2025-04-03T07:04:35Z</time>
      </trkpt>
      <trkpt lat="48.52919" lon="1.9619">
        <ele>107</ele>
        <time>2025-04-03T07:04:42Z</time>
      </trkpt>
      <trkpt lat="48.52909" lon="1.96189">
        <ele>107.1</ele>
        <time>2025-04-03T07:04:49Z</time>
      </trkpt>
      <trkpt lat="48.52898" lon="1.96189">
        <ele>107.1</ele>
        <time>2025-04-03T07:04:56Z</time>
      </trkpt>
      <trkpt lat="48.52888" lon="1.96186">
        <ele>107.3</ele>
        <time>2025-04-03T07:05:03Z</time>
      </trkpt>
      <trkpt lat="48.5288" lon="1.96184">
        <ele>107.6</ele>
        <time>2025-04-03T07:05:09Z</time>
      </trkpt>
      <trkpt lat="48.5287" lon="1.96183">
        <ele>107.8</ele>
        <time>2025-04-03T07:05:16Z</time>
      </trkpt>
      <trkpt lat="48.5286" lon="1.96182">
        <ele>108.1</ele>
        <time>2025-04-03T07:05:23Z</time>
      </trkpt>
      <trkpt lat="48.5285" lon="1.96182">
        <ele>108.8</ele>
        <time>2025-04-03T07:05:30Z</time>
      </trkpt>
      <trkpt lat="48.52841" lon="1.96182">
        <ele>109.4</ele>
        <time>2025-04-03T07:05:38Z</time>
      </trkpt>
      <trkpt lat="48.52832" lon="1.96178">
        <ele>110.1</ele>
        <time>2025-04-03T07:05:46Z</time>
      </trkpt>
      <trkpt lat="48.52822" lon="1.96175">
        <ele>110.8</ele>
        <time>2025-04-03T07:05:55Z</time>
      </trkpt>
      <trkpt lat="48.52812" lon="1.96173">
        <ele>111.5</ele>
        <time>2025-04-03T07:06:03Z</time>
      </trkpt>
      <trkpt lat="48.52803" lon="1.96171">
        <ele>112.2</ele>
        <time>2025-04-03T07:06:10Z</time>
      </trkpt>
      <trkpt lat="48.52793" lon="1.96169">
        <ele>112.9</ele>
        <time>2025-04-03T07:06:17Z</time>
      </trkpt>
      <trkpt lat="48.52783" lon="1.96169">
        <ele>113.7</ele>
        <time>2025-04-03T07:06:25Z</time>
      </trkpt>
      <trkpt lat="48.52773" lon="1.96167">
        <ele>114.3</ele>
        <time>2025-04-03T07:06:32Z</time>
      </trkpt>
      <trkpt lat="48.52765" lon="1.96162">
        <ele>114.8</ele>
        <time>2025-04-03T07:06:39Z</time>
      </trkpt>
      <trkpt lat="48.52754" lon="1.96161">
        <ele>115.5</ele>
        <time>2025-04-03T07:06:44Z</time>
      </trkpt>
      <trkpt lat="48.52744" lon="1.96162">
        <ele>116</ele>
        <time>2025-04-03T07:06:49Z</time>
      </trkpt>
      <trkpt lat="48.52735" lon="1.96164">
        <ele>116.5</ele>
        <time>2025-04-03T07:06:56Z</time>
      </trkpt>
      <trkpt lat="48.52726" lon="1.96164">
        <ele>116.8</ele>
        <time>2025-04-03T07:07:04Z</time>
      </trkpt>
      <trkpt lat="48.52717" lon="1.96158">
        <ele>116.9</ele>
        <time>2025-04-03T07:07:12Z</time>
      </trkpt>
      <trkpt lat="48.52708" lon="1.9615">
        <ele>116.9</ele>
        <time>2025-04-03T07:07:20Z</time>
      </trkpt>
      <trkpt lat="48.527" lon="1.96144">
        <ele>117</ele>
        <time>2025-04-03T07:07:28Z</time>
      </trkpt>
      <trkpt lat="48.52692" lon="1.96135">
        <ele>116.9</ele>
        <time>2025-04-03T07:07:36Z</time>
      </trkpt>
      <trkpt lat="48.52684" lon="1.96125">
        <ele>116.7</ele>
        <time>2025-04-03T07:07:43Z</time>
      </trkpt>
      <trkpt lat="48.52677" lon="1.96113">
        <ele>116.4</ele>
        <time>2025-04-03T07:07:50Z</time>
      </trkpt>
      <trkpt lat="48.52672" lon="1.96101">
        <ele>116</ele>
        <time>2025-04-03T07:07:57Z</time>
      </trkpt>
      <trkpt lat="48.52666" lon="1.9609">
        <ele>115.5</ele>
        <time>2025-04-03T07:08:04Z</time>
      </trkpt>
      <trkpt lat="48.5266" lon="1.96079">
        <ele>114.5</ele>
        <time>2025-04-03T07:08:11Z</time>
      </trkpt>
      <trkpt lat="48.52653" lon="1.96069">
        <ele>113.7</ele>
        <time>2025-04-03T07:08:18Z</time>
      </trkpt>
      <trkpt lat="48.52645" lon="1.9606">
        <ele>113.1</ele>
        <time>2025-04-03T07:08:25Z</time>
      </trkpt>
      <trkpt lat="48.52639" lon="1.96049">
        <ele>112.8</ele>
        <time>2025-04-03T07:08:32Z</time>
      </trkpt>
      <trkpt lat="48.52634" lon="1.96037">
        <ele>113.2</ele>
        <time>2025-04-03T07:08:39Z</time>
      </trkpt>
      <trkpt lat="48.5263" lon="1.96023">
        <ele>113.6</ele>
        <time>2025-04-03T07:08:46Z</time>
      </trkpt>
      <trkpt lat="48.52626" lon="1.96011">
        <ele>113.8</ele>
        <time>2025-04-03T07:08:53Z</time>
      </trkpt>
      <trkpt lat="48.52622" lon="1.95997">
        <ele>113.8</ele>
        <time>2025-04-03T07:09:01Z</time>
      </trkpt>
      <trkpt lat="48.52616" lon="1.95986">
        <ele>113.7</ele>
        <time>2025-04-03T07:09:08Z</time>
      </trkpt>
      <trkpt lat="48.52611" lon="1.95975">
        <ele>113.4</ele>
        <time>2025-04-03T07:09:15Z</time>
      </trkpt>
      <trkpt lat="48.52604" lon="1.95964">
        <ele>113.3</ele>
        <time>2025-04-03T07:09:22Z</time>
      </trkpt>
      <trkpt lat="48.52598" lon="1.95951">
        <ele>112.6</ele>
        <time>2025-04-03T07:09:29Z</time>
      </trkpt>
      <trkpt lat="48.52594" lon="1.95938">
        <ele>111.6</ele>
        <time>2025-04-03T07:09:36Z</time>
      </trkpt>
      <trkpt lat="48.5259" lon="1.95925">
        <ele>110.6</ele>
        <time>2025-04-03T07:09:43Z</time>
      </trkpt>
      <trkpt lat="48.52586" lon="1.9591">
        <ele>109.7</ele>
        <time>2025-04-03T07:09:50Z</time>
      </trkpt>
      <trkpt lat="48.52583" lon="1.95896">
        <ele>109.3</ele>
        <time>2025-04-03T07:09:57Z</time>
      </trkpt>
      <trkpt lat="48.5258" lon="1.95883">
        <ele>108.9</ele>
        <time>2025-04-03T07:10:04Z</time>
      </trkpt>
      <trkpt lat="48.52576" lon="1.95869">
        <ele>108.7</ele>
        <time>2025-04-03T07:10:11Z</time>
      </trkpt>
      <trkpt lat="48.52572" lon="1.95857">
        <ele>108.8</ele>
        <time>2025-04-03T07:10:18Z</time>
      </trkpt>
      <trkpt lat="48.52566" lon="1.95846">
        <ele>109.2</ele>
        <time>2025-04-03T07:10:25Z</time>
      </trkpt>
      <trkpt lat="48.5256" lon="1.95835">
        <ele>109.7</ele>
        <time>2025-04-03T07:10:32Z</time>
      </trkpt>
      <trkpt lat="48.52553" lon="1.95825">
        <ele>110.2</ele>
        <time>2025-04-03T07:10:40Z</time>
      </trkpt>
      <trkpt lat="48.52548" lon="1.95814">
        <ele>110.6</ele>
        <time>2025-04-03T07:10:47Z</time>
      </trkpt>
      <trkpt lat="48.52542" lon="1.95803">
        <ele>111</ele>
        <time>2025-04-03T07:10:54Z</time>
      </trkpt>
      <trkpt lat="48.52536" lon="1.95791">
        <ele>111.7</ele>
        <time>2025-04-03T07:11:02Z</time>
      </trkpt>
      <trkpt lat="48.52532" lon="1.95779">
        <ele>112.6</ele>
        <time>2025-04-03T07:11:09Z</time>
      </trkpt>
      <trkpt lat="48.52526" lon="1.95766">
        <ele>112.7</ele>
        <time>2025-04-03T07:11:17Z</time>
      </trkpt>
      <trkpt lat="48.5252" lon="1.95754">
        <ele>112.7</ele>
        <time>2025-04-03T07:11:24Z</time>
      </trkpt>
      <trkpt lat="48.52513" lon="1.95744">
        <ele>112.9</ele>
        <time>2025-04-03T07:11:31Z</time>
      </trkpt>
      <trkpt lat="48.52507" lon="1.95734">
        <ele>113.1</ele>
        <time>2025-04-03T07:11:38Z</time>
      </trkpt>
      <trkpt lat="48.52499" lon="1.95725">
        <ele>113.1</ele>
        <time>2025-04-03T07:11:45Z</time>
      </trkpt>
      <trkpt lat="48.5249" lon="1.95718">
        <ele>112.3</ele>
        <time>2025-04-03T07:11:52Z</time>
      </trkpt>
      <trkpt lat="48.5248" lon="1.95715">
        <ele>111.7</ele>
        <time>2025-04-03T07:11:59Z</time>
      </trkpt>
      <trkpt lat="48.52471" lon="1.95715">
        <ele>111.5</ele>
        <time>2025-04-03T07:12:05Z</time>
      </trkpt>
      <trkpt lat="48.52461" lon="1.95717">
        <ele>111.5</ele>
        <time>2025-04-03T07:12:11Z</time>
      </trkpt>
      <trkpt lat="48.52451" lon="1.95716">
        <ele>111.3</ele>
        <time>2025-04-03T07:12:18Z</time>
      </trkpt>
      <trkpt lat="48.52441" lon="1.95715">
        <ele>111.1</ele>
        <time>2025-04-03T07:12:25Z</time>
      </trkpt>
      <trkpt lat="48.52431" lon="1.95717">
        <ele>111</ele>
        <time>2025-04-03T07:12:32Z</time>
      </trkpt>
      <trkpt lat="48.52421" lon="1.95718">
        <ele>110.7</ele>
        <time>2025-04-03T07:12:39Z</time>
      </trkpt>
      <trkpt lat="48.52413" lon="1.95721">
        <ele>110.6</ele>
        <time>2025-04-03T07:12:45Z</time>
      </trkpt>
      <trkpt lat="48.52403" lon="1.95724">
        <ele>110.3</ele>
        <time>2025-04-03T07:12:51Z</time>
      </trkpt>
      <trkpt lat="48.52393" lon="1.95726">
        <ele>110</ele>
        <time>2025-04-03T07:12:58Z</time>
      </trkpt>
      <trkpt lat="48.52382" lon="1.95729">
        <ele>110</ele>
        <time>2025-04-03T07:13:05Z</time>
      </trkpt>
      <trkpt lat="48.52373" lon="1.95731">
        <ele>110</ele>
        <time>2025-04-03T07:13:11Z</time>
      </trkpt>
      <trkpt lat="48.52363" lon="1.95729">
        <ele>109.6</ele>
        <time>2025-04-03T07:13:18Z</time>
      </trkpt>
      <trkpt lat="48.52353" lon="1.95726">
        <ele>109.5</ele>
        <time>2025-04-03T07:13:25Z</time>
      </trkpt>
      <trkpt lat="48.52345" lon="1.95719">
        <ele>109.4</ele>
        <time>2025-04-03T07:13:31Z</time>
      </trkpt>
      <trkpt lat="48.52339" lon="1.9571">
        <ele>109</ele>
        <time>2025-04-03T07:13:37Z</time>
      </trkpt>
      <trkpt lat="48.52332" lon="1.95699">
        <ele>108.4</ele>
        <time>2025-04-03T07:13:44Z</time>
      </trkpt>
      <trkpt lat="48.52323" lon="1.95692">
        <ele>108.3</ele>
        <time>2025-04-03T07:13:50Z</time>
      </trkpt>
      <trkpt lat="48.52314" lon="1.95684">
        <ele>108.4</ele>
        <time>2025-04-03T07:13:57Z</time>
      </trkpt>
      <trkpt lat="48.52305" lon="1.95676">
        <ele>108.4</ele>
        <time>2025-04-03T07:14:04Z</time>
      </trkpt>
      <trkpt lat="48.52296" lon="1.95669">
        <ele>109.5</ele>
        <time>2025-04-03T07:14:11Z</time>
      </trkpt>
      <trkpt lat="48.52288" lon="1.95661">
        <ele>110.3</ele>
        <time>2025-04-03T07:14:17Z</time>
      </trkpt>
      <trkpt lat="48.52281" lon="1.95652">
        <ele>110.9</ele>
        <time>2025-04-03T07:14:23Z</time>
      </trkpt>
      <trkpt lat="48.52276" lon="1.9564">
        <ele>111.8</ele>
        <time>2025-04-03T07:14:29Z</time>
      </trkpt>
      <trkpt lat="48.52271" lon="1.95627">
        <ele>113</ele>
        <time>2025-04-03T07:14:36Z</time>
      </trkpt>
      <trkpt lat="48.52267" lon="1.95613">
        <ele>113.6</ele>
        <time>2025-04-03T07:14:43Z</time>
      </trkpt>
      <trkpt lat="48.52265" lon="1.95597">
        <ele>113.3</ele>
        <time>2025-04-03T07:14:50Z</time>
      </trkpt>
      <trkpt lat="48.52263" lon="1.95582">
        <ele>113.2</ele>
        <time>2025-04-03T07:14:57Z</time>
      </trkpt>
      <trkpt lat="48.52261" lon="1.95569">
        <ele>114.1</ele>
        <time>2025-04-03T07:15:03Z</time>
      </trkpt>
      <trkpt lat="48.52259" lon="1.95555">
        <ele>114.8</ele>
        <time>2025-04-03T07:15:10Z</time>
      </trkpt>
      <trkpt lat="48.52258" lon="1.95541">
        <ele>115</ele>
        <time>2025-04-03T07:15:17Z</time>
      </trkpt>
      <trkpt lat="48.52257" lon="1.95527">
        <ele>115.3</ele>
        <time>2025-04-03T07:15:24Z</time>
      </trkpt>
      <trkpt lat="48.52255" lon="1.95511">
        <ele>115.3</ele>
        <time>2025-04-03T07:15:31Z</time>
      </trkpt>
      <trkpt lat="48.52253" lon="1.95497">
        <ele>115.1</ele>
        <time>2025-04-03T07:15:38Z</time>
      </trkpt>
      <trkpt lat="48.52251" lon="1.95482">
        <ele>114.5</ele>
        <time>2025-04-03T07:15:45Z</time>
      </trkpt>
      <trkpt lat="48.52249" lon="1.95468">
        <ele>113.8</ele>
        <time>2025-04-03T07:15:52Z</time>
      </trkpt>
      <trkpt lat="48.52245" lon="1.95454">
        <ele>113.2</ele>
        <time>2025-04-03T07:15:59Z</time>
      </trkpt>
      <trkpt lat="48.52237" lon="1.95447">
        <ele>112.7</ele>
        <time>2025-04-03T07:16:05Z</time>
      </trkpt>
      <trkpt lat="48.52228" lon="1.9545">
        <ele>112.6</ele>
        <time>2025-04-03T07:16:11Z</time>
      </trkpt>
      <trkpt lat="48.52218" lon="1.95457">
        <ele>112.6</ele>
        <time>2025-04-03T07:16:18Z</time>
      </trkpt>
      <trkpt lat="48.5221" lon="1.95466">
        <ele>112.3</ele>
        <time>2025-04-03T07:16:25Z</time>
      </trkpt>
      <trkpt lat="48.52202" lon="1.95476">
        <ele>112.2</ele>
        <time>2025-04-03T07:16:32Z</time>
      </trkpt>
      <trkpt lat="48.52195" lon="1.95485">
        <ele>112.4</ele>
        <time>2025-04-03T07:16:39Z</time>
      </trkpt>
      <trkpt lat="48.52188" lon="1.95494">
        <ele>113.1</ele>
        <time>2025-04-03T07:16:46Z</time>
      </trkpt>
      <trkpt lat="48.52179" lon="1.95499">
        <ele>113.3</ele>
        <time>2025-04-03T07:16:53Z</time>
      </trkpt>
      <trkpt lat="48.52169" lon="1.95497">
        <ele>112.8</ele>
        <time>2025-04-03T07:17:00Z</time>
      </trkpt>
      <trkpt lat="48.5216" lon="1.95494">
        <ele>112</ele>
        <time>2025-04-03T07:17:06Z</time>
      </trkpt>
      <trkpt lat="48.52151" lon="1.95493">
        <ele>111.2</ele>
        <time>2025-04-03T07:17:12Z</time>
      </trkpt>
      <trkpt lat="48.52141" lon="1.95494">
        <ele>110.7</ele>
        <time>2025-04-03T07:17:18Z</time>
      </trkpt>
      <trkpt lat="48.52133" lon="1.95499">
        <ele>110.9</ele>
        <time>2025-04-03T07:17:24Z</time>
      </trkpt>
      <trkpt lat="48.52124" lon="1.95499">
        <ele>110.9</ele>
        <time>2025-04-03T07:17:30Z</time>
      </trkpt>
      <trkpt lat="48.52114" lon="1.95496">
        <ele>110.7</ele>
        <time>2025-04-03T07:17:37Z</time>
      </trkpt>
      <trkpt lat="48.52104" lon="1.95493">
        <ele>110.9</ele>
        <time>2025-04-03T07:17:44Z</time>
      </trkpt>
      <trkpt lat="48.52095" lon="1.95488">
        <ele>111</ele>
        <time>2025-04-03T07:17:51Z</time>
      </trkpt>
      <trkpt lat="48.52087" lon="1.95482">
        <ele>110.9</ele>
        <time>2025-04-03T07:17:57Z</time>
      </trkpt>
      <trkpt lat="48.52079" lon="1.95475">
        <ele>110.6</ele>
        <time>2025-04-03T07:18:03Z</time>
      </trkpt>
      <trkpt lat="48.52072" lon="1.95465">
        <ele>110.5</ele>
        <time>2025-04-03T07:18:09Z</time>
      </trkpt>
      <trkpt lat="48.52066" lon="1.95454">
        <ele>110.2</ele>
        <time>2025-04-03T07:18:15Z</time>
      </trkpt>
      <trkpt lat="48.5206" lon="1.95444">
        <ele>109.8</ele>
        <time>2025-04-03T07:18:21Z</time>
      </trkpt>
      <trkpt lat="48.52055" lon="1.95432">
        <ele>110.1</ele>
        <time>2025-04-03T07:18:27Z</time>
      </trkpt>
      <trkpt lat="48.52049" lon="1.95419">
        <ele>110.3</ele>
        <time>2025-04-03T07:18:34Z</time>
      </trkpt>
      <trkpt lat="48.52042" lon="1.95407">
        <ele>110.1</ele>
        <time>2025-04-03T07:18:41Z</time>
      </trkpt>
      <trkpt lat="48.52037" lon="1.95395">
        <ele>109.9</ele>
        <time>2025-04-03T07:18:47Z</time>
      </trkpt>
      <trkpt lat="48.52031" lon="1.95383">
        <ele>109.9</ele>
        <time>2025-04-03T07:18:54Z</time>
      </trkpt>
      <trkpt lat="48.52024" lon="1.95372">
        <ele>110.2</ele>
        <time>2025-04-03T07:19:01Z</time>
      </trkpt>
      <trkpt lat="48.52017" lon="1.95361">
        <ele>110.4</ele>
        <time>2025-04-03T07:19:08Z</time>
      </trkpt>
      <trkpt lat="48.52011" lon="1.95348">
        <ele>110.1</ele>
        <time>2025-04-03T07:19:15Z</time>
      </trkpt>
      <trkpt lat="48.52004" lon="1.95339">
        <ele>110.1</ele>
        <time>2025-04-03T07:19:21Z</time>
      </trkpt>
      <trkpt lat="48.51997" lon="1.95329">
        <ele>110</ele>
        <time>2025-04-03T07:19:28Z</time>
      </trkpt>
      <trkpt lat="48.51989" lon="1.9532">
        <ele>110.3</ele>
        <time>2025-04-03T07:19:35Z</time>
      </trkpt>
      <trkpt lat="48.51981" lon="1.95314">
        <ele>110.7</ele>
        <time>2025-04-03T07:19:41Z</time>
      </trkpt>
      <trkpt lat="48.51972" lon="1.95307">
        <ele>111.1</ele>
        <time>2025-04-03T07:19:48Z</time>
      </trkpt>
      <trkpt lat="48.51964" lon="1.95301">
        <ele>111.9</ele>
        <time>2025-04-03T07:19:54Z</time>
      </trkpt>
      <trkpt lat="48.51954" lon="1.95294">
        <ele>112.4</ele>
        <time>2025-04-03T07:20:01Z</time>
      </trkpt>
      <trkpt lat="48.51946" lon="1.95289">
        <ele>112.5</ele>
        <time>2025-04-03T07:20:07Z</time>
      </trkpt>
      <trkpt lat="48.51938" lon="1.95282">
        <ele>112.8</ele>
        <time>2025-04-03T07:20:13Z</time>
      </trkpt>
      <trkpt lat="48.5193" lon="1.95272">
        <ele>113.1</ele>
        <time>2025-04-03T07:20:20Z</time>
      </trkpt>
      <trkpt lat="48.51922" lon="1.95264">
        <ele>113.7</ele>
        <time>2025-04-03T07:20:27Z</time>
      </trkpt>
      <trkpt lat="48.51914" lon="1.95255">
        <ele>114.2</ele>
        <time>2025-04-03T07:20:34Z</time>
      </trkpt>
      <trkpt lat="48.51907" lon="1.95246">
        <ele>114.5</ele>
        <time>2025-04-03T07:20:41Z</time>
      </trkpt>
      <trkpt lat="48.51899" lon="1.95237">
        <ele>114.4</ele>
        <time>2025-04-03T07:20:48Z</time>
      </trkpt>
      <trkpt lat="48.51892" lon="1.95229">
        <ele>114</ele>
        <time>2025-04-03T07:20:54Z</time>
      </trkpt>
      <trkpt lat="48.51884" lon="1.9522">
        <ele>113.5</ele>
        <time>2025-04-03T07:21:01Z</time>
      </trkpt>
      <trkpt lat="48.51874" lon="1.95215">
        <ele>114.2</ele>
        <time>2025-04-03T07:21:08Z</time>
      </trkpt>
      <trkpt lat="48.51865" lon="1.95208">
        <ele>114</ele>
        <time>2025-04-03T07:21:15Z</time>
      </trkpt>
      <trkpt lat="48.51855" lon="1.95203">
        <ele>113.4</ele>
        <time>2025-04-03T07:21:22Z</time>
      </trkpt>
      <trkpt lat="48.51846" lon="1.952">
        <ele>113.2</ele>
        <time>2025-04-03T07:21:29Z</time>
      </trkpt>
      <trkpt lat="48.51837" lon="1.95196">
        <ele>113.1</ele>
        <time>2025-04-03T07:21:36Z</time>
      </trkpt>
      <trkpt lat="48.51828" lon="1.95191">
        <ele>112.8</ele>
        <time>2025-04-03T07:21:42Z</time>
      </trkpt>
      <trkpt lat="48.51818" lon="1.95187">
        <ele>112.9</ele>
        <time>2025-04-03T07:21:49Z</time>
      </trkpt>
      <trkpt lat="48.51809" lon="1.95185">
        <ele>113.2</ele>
        <time>2025-04-03T07:21:56Z</time>
      </trkpt>
      <trkpt lat="48.518" lon="1.95181">
        <ele>113.7</ele>
        <time>2025-04-03T07:22:03Z</time>
      </trkpt>
      <trkpt lat="48.51794" lon="1.95168">
        <ele>113.8</ele>
        <time>2025-04-03T07:22:11Z</time>
      </trkpt>
      <trkpt lat="48.51795" lon="1.95154">
        <ele>113.1</ele>
        <time>2025-04-03T07:22:17Z</time>
      </trkpt>
      <trkpt lat="48.51793" lon="1.9514">
        <ele>112.8</ele>
        <time>2025-04-03T07:22:24Z</time>
      </trkpt>
      <trkpt lat="48.51789" lon="1.95127">
        <ele>112.7</ele>
        <time>2025-04-03T07:22:31Z</time>
      </trkpt>
      <trkpt lat="48.51782" lon="1.95117">
        <ele>113</ele>
        <time>2025-04-03T07:22:38Z</time>
      </trkpt>
      <trkpt lat="48.51775" lon="1.95107">
        <ele>113.7</ele>
        <time>2025-04-03T07:22:45Z</time>
      </trkpt>
      <trkpt lat="48.51769" lon="1.95097">
        <ele>114.9</ele>
        <time>2025-04-03T07:22:52Z</time>
      </trkpt>
      <trkpt lat="48.51768" lon="1.95083">
        <ele>114.8</ele>
        <time>2025-04-03T07:22:59Z</time>
      </trkpt>
      <trkpt lat="48.51772" lon="1.95069">
        <ele>115</ele>
        <time>2025-04-03T07:23:06Z</time>
      </trkpt>
      <trkpt lat="48.51779" lon="1.95059">
        <ele>114.6</ele>
        <time>2025-04-03T07:23:12Z</time>
      </trkpt>
      <trkpt lat="48.51786" lon="1.95051">
        <ele>114.4</ele>
        <time>2025-04-03T07:23:18Z</time>
      </trkpt>
      <trkpt lat="48.51795" lon="1.95044">
        <ele>113.9</ele>
        <time>2025-04-03T07:23:25Z</time>
      </trkpt>
      <trkpt lat="48.51802" lon="1.95032">
        <ele>113.6</ele>
        <time>2025-04-03T07:23:32Z</time>
      </trkpt>
      <trkpt lat="48.51808" lon="1.95022">
        <ele>113.6</ele>
        <time>2025-04-03T07:23:39Z</time>
      </trkpt>
      <trkpt lat="48.51814" lon="1.95009">
        <ele>114.2</ele>
        <time>2025-04-03T07:23:47Z</time>
      </trkpt>
      <trkpt lat="48.5182" lon="1.94998">
        <ele>114.1</ele>
        <time>2025-04-03T07:23:54Z</time>
      </trkpt>
      <trkpt lat="48.51826" lon="1.94985">
        <ele>114</ele>
        <time>2025-04-03T07:24:01Z</time>
      </trkpt>
      <trkpt lat="48.5183" lon="1.94973">
        <ele>113.9</ele>
        <time>2025-04-03T07:24:08Z</time>
      </trkpt>
      <trkpt lat="48.51831" lon="1.94959">
        <ele>114.4</ele>
        <time>2025-04-03T07:24:15Z</time>
      </trkpt>
      <trkpt lat="48.51832" lon="1.94945">
        <ele>114.4</ele>
        <time>2025-04-03T07:24:22Z</time>
      </trkpt>
      <trkpt lat="48.51832" lon="1.9493">
        <ele>114.4</ele>
        <time>2025-04-03T07:24:30Z</time>
      </trkpt>
      <trkpt lat="48.51833" lon="1.94915">
        <ele>114.1</ele>
        <time>2025-04-03T07:24:38Z</time>
      </trkpt>
      <trkpt lat="48.51832" lon="1.94901">
        <ele>114.5</ele>
        <time>2025-04-03T07:24:45Z</time>
      </trkpt>
      <trkpt lat="48.5183" lon="1.94888">
        <ele>115.2</ele>
        <time>2025-04-03T07:24:52Z</time>
      </trkpt>
      <trkpt lat="48.51828" lon="1.94873">
        <ele>115.7</ele>
        <time>2025-04-03T07:24:59Z</time>
      </trkpt>
      <trkpt lat="48.51824" lon="1.9486">
        <ele>116.4</ele>
        <time>2025-04-03T07:25:07Z</time>
      </trkpt>
      <trkpt lat="48.5182" lon="1.94847">
        <ele>116.8</ele>
        <time>2025-04-03T07:25:15Z</time>
      </trkpt>
      <trkpt lat="48.51819" lon="1.94833">
        <ele>116.6</ele>
        <time>2025-04-03T07:25:23Z</time>
      </trkpt>
      <trkpt lat="48.51812" lon="1.94822">
        <ele>117.2</ele>
        <time>2025-04-03T07:25:32Z</time>
      </trkpt>
      <trkpt lat="48.51802" lon="1.94817">
        <ele>117.9</ele>
        <time>2025-04-03T07:25:40Z</time>
      </trkpt>
      <trkpt lat="48.51792" lon="1.94819">
        <ele>118.2</ele>
        <time>2025-04-03T07:25:48Z</time>
      </trkpt>
      <trkpt lat="48.51783" lon="1.94824">
        <ele>118.9</ele>
        <time>2025-04-03T07:25:56Z</time>
      </trkpt>
      <trkpt lat="48.51775" lon="1.94829">
        <ele>119.4</ele>
        <time>2025-04-03T07:26:02Z</time>
      </trkpt>
      <trkpt lat="48.51765" lon="1.94834">
        <ele>119.8</ele>
        <time>2025-04-03T07:26:09Z</time>
      </trkpt>
      <trkpt lat="48.51756" lon="1.94838">
        <ele>120.2</ele>
        <time>2025-04-03T07:26:16Z</time>
      </trkpt>
      <trkpt lat="48.51747" lon="1.94841">
        <ele>120.6</ele>
        <time>2025-04-03T07:26:23Z</time>
      </trkpt>
      <trkpt lat="48.51738" lon="1.94845">
        <ele>121.1</ele>
        <time>2025-04-03T07:26:30Z</time>
      </trkpt>
      <trkpt lat="48.51727" lon="1.94843">
        <ele>120.5</ele>
        <time>2025-04-03T07:26:38Z</time>
      </trkpt>
      <trkpt lat="48.51718" lon="1.94838">
        <ele>119.8</ele>
        <time>2025-04-03T07:26:45Z</time>
      </trkpt>
      <trkpt lat="48.51709" lon="1.94834">
        <ele>119.5</ele>
        <time>2025-04-03T07:26:52Z</time>
      </trkpt>
      <trkpt lat="48.517" lon="1.94826">
        <ele>118.9</ele>
        <time>2025-04-03T07:26:59Z</time>
      </trkpt>
      <trkpt lat="48.51691" lon="1.9482">
        <ele>118.8</ele>
        <time>2025-04-03T07:27:06Z</time>
      </trkpt>
      <trkpt lat="48.51683" lon="1.94815">
        <ele>118.6</ele>
        <time>2025-04-03T07:27:13Z</time>
      </trkpt>
      <trkpt lat="48.51674" lon="1.94809">
        <ele>118.2</ele>
        <time>2025-04-03T07:27:20Z</time>
      </trkpt>
      <trkpt lat="48.51668" lon="1.94799">
        <ele>117.5</ele>
        <time>2025-04-03T07:27:27Z</time>
      </trkpt>
      <trkpt lat="48.5166" lon="1.94789">
        <ele>117.6</ele>
        <time>2025-04-03T07:27:35Z</time>
      </trkpt>
      <trkpt lat="48.51653" lon="1.94778">
        <ele>117.5</ele>
        <time>2025-04-03T07:27:43Z</time>
      </trkpt>
      <trkpt lat="48.51645" lon="1.9477">
        <ele>117.8</ele>
        <time>2025-04-03T07:27:50Z</time>
      </trkpt>
      <trkpt lat="48.51638" lon="1.94759">
        <ele>117.8</ele>
        <time>2025-04-03T07:27:57Z</time>
      </trkpt>
      <trkpt lat="48.51635" lon="1.94745">
        <ele>117.3</ele>
        <time>2025-04-03T07:28:05Z</time>
      </trkpt>
      <trkpt lat="48.51636" lon="1.94731">
        <ele>116.1</ele>
        <time>2025-04-03T07:28:14Z</time>
      </trkpt>
      <trkpt lat="48.51634" lon="1.94718">
        <ele>115.5</ele>
        <time>2025-04-03T07:28:34Z</time>
      </trkpt>
      <trkpt lat="48.51635" lon="1.94731">
        <ele>116.3</ele>
        <time>2025-04-03T07:29:40Z</time>
      </trkpt>
      <trkpt lat="48.51634" lon="1.94718">
        <ele>115.4</ele>
        <time>2025-04-03T07:30:49Z</time>
      </trkpt>
      <trkpt lat="48.51629" lon="1.94706">
        <ele>115.2</ele>
        <time>2025-04-03T07:31:25Z</time>
      </trkpt>
      <trkpt lat="48.51621" lon="1.94697">
        <ele>114.9</ele>
        <time>2025-04-03T07:31:34Z</time>
      </trkpt>
      <trkpt lat="48.51612" lon="1.94692">
        <ele>114.9</ele>
        <time>2025-04-03T07:31:43Z</time>
      </trkpt>
      <trkpt lat="48.51602" lon="1.94693">
        <ele>114.9</ele>
        <time>2025-04-03T07:31:52Z</time>
      </trkpt>
      <trkpt lat="48.51592" lon="1.94693">
        <ele>114.9</ele>
        <time>2025-04-03T07:32:00Z</time>
      </trkpt>
      <trkpt lat="48.51583" lon="1.94696">
        <ele>115.1</ele>
        <time>2025-04-03T07:32:08Z</time>
      </trkpt>
      <trkpt lat="48.51574" lon="1.94702">
        <ele>115.3</ele>
        <time>2025-04-03T07:32:15Z</time>
      </trkpt>
      <trkpt lat="48.51567" lon="1.9471">
        <ele>115.4</ele>
        <time>2025-04-03T07:32:22Z</time>
      </trkpt>
      <trkpt lat="48.51557" lon="1.94714">
        <ele>114.8</ele>
        <time>2025-04-03T07:32:53Z</time>
      </trkpt>
      <trkpt lat="48.51552" lon="1.94725">
        <ele>115.1</ele>
        <time>2025-04-03T07:33:00Z</time>
      </trkpt>
      <trkpt lat="48.51544" lon="1.94735">
        <ele>115.6</ele>
        <time>2025-04-03T07:33:08Z</time>
      </trkpt>
      <trkpt lat="48.51536" lon="1.94742">
        <ele>115.5</ele>
        <time>2025-04-03T07:33:15Z</time>
      </trkpt>
      <trkpt lat="48.51529" lon="1.9475">
        <ele>115.1</ele>
        <time>2025-04-03T07:33:22Z</time>
      </trkpt>
      <trkpt lat="48.51521" lon="1.94757">
        <ele>115.5</ele>
        <time>2025-04-03T07:33:29Z</time>
      </trkpt>
      <trkpt lat="48.51513" lon="1.94764">
        <ele>115.7</ele>
        <time>2025-04-03T07:33:36Z</time>
      </trkpt>
      <trkpt lat="48.51504" lon="1.9477">
        <ele>115.6</ele>
        <time>2025-04-03T07:33:44Z</time>
      </trkpt>
      <trkpt lat="48.51494" lon="1.94774">
        <ele>115.6</ele>
        <time>2025-04-03T07:33:53Z</time>
      </trkpt>
      <trkpt lat="48.51485" lon="1.9478">
        <ele>115.6</ele>
        <time>2025-04-03T07:34:02Z</time>
      </trkpt>
      <trkpt lat="48.51477" lon="1.94786">
        <ele>115.9</ele>
        <time>2025-04-03T07:34:09Z</time>
      </trkpt>
      <trkpt lat="48.51468" lon="1.94792">
        <ele>116</ele>
        <time>2025-04-03T07:34:16Z</time>
      </trkpt>
      <trkpt lat="48.5146" lon="1.948">
        <ele>116.3</ele>
        <time>2025-04-03T07:34:23Z</time>
      </trkpt>
      <trkpt lat="48.5145" lon="1.94803">
        <ele>116.1</ele>
        <time>2025-04-03T07:34:30Z</time>
      </trkpt>
      <trkpt lat="48.51442" lon="1.94808">
        <ele>116</ele>
        <time>2025-04-03T07:34:37Z</time>
      </trkpt>
      <trkpt lat="48.51433" lon="1.94815">
        <ele>116.1</ele>
        <time>2025-04-03T07:34:44Z</time>
      </trkpt>
      <trkpt lat="48.51424" lon="1.9482">
        <ele>115.9</ele>
        <time>2025-04-03T07:34:51Z</time>
      </trkpt>
      <trkpt lat="48.51415" lon="1.94824">
        <ele>115.6</ele>
        <time>2025-04-03T07:34:58Z</time>
      </trkpt>
      <trkpt lat="48.51407" lon="1.9483">
        <ele>115.5</ele>
        <time>2025-04-03T07:35:05Z</time>
      </trkpt>
      <trkpt lat="48.51399" lon="1.94837">
        <ele>115.5</ele>
        <time>2025-04-03T07:35:12Z</time>
      </trkpt>
      <trkpt lat="48.5139" lon="1.94842">
        <ele>115.4</ele>
        <time>2025-04-03T07:35:19Z</time>
      </trkpt>
      <trkpt lat="48.51381" lon="1.94848">
        <ele>115.5</ele>
        <time>2025-04-03T07:35:27Z</time>
      </trkpt>
      <trkpt lat="48.51375" lon="1.94859">
        <ele>115.9</ele>
        <time>2025-04-03T07:35:35Z</time>
      </trkpt>
      <trkpt lat="48.51366" lon="1.94864">
        <ele>116.3</ele>
        <time>2025-04-03T07:35:44Z</time>
      </trkpt>
      <trkpt lat="48.51356" lon="1.94861">
        <ele>116.3</ele>
        <time>2025-04-03T07:35:51Z</time>
      </trkpt>
      <trkpt lat="48.5135" lon="1.94852">
        <ele>116.4</ele>
        <time>2025-04-03T07:35:58Z</time>
      </trkpt>
      <trkpt lat="48.51342" lon="1.94842">
        <ele>116.2</ele>
        <time>2025-04-03T07:36:07Z</time>
      </trkpt>
      <trkpt lat="48.5134" lon="1.94828">
        <ele>115.6</ele>
        <time>2025-04-03T07:36:16Z</time>
      </trkpt>
      <trkpt lat="48.51336" lon="1.94815">
        <ele>115.2</ele>
        <time>2025-04-03T07:36:24Z</time>
      </trkpt>
      <trkpt lat="48.51332" lon="1.94802">
        <ele>115</ele>
        <time>2025-04-03T07:36:32Z</time>
      </trkpt>
      <trkpt lat="48.51327" lon="1.94789">
        <ele>115.1</ele>
        <time>2025-04-03T07:36:39Z</time>
      </trkpt>
      <trkpt lat="48.5132" lon="1.94779">
        <ele>115</ele>
        <time>2025-04-03T07:36:46Z</time>
      </trkpt>
      <trkpt lat="48.51314" lon="1.94768">
        <ele>114.9</ele>
        <time>2025-04-03T07:36:54Z</time>
      </trkpt>
      <trkpt lat="48.51306" lon="1.94757">
        <ele>115</ele>
        <time>2025-04-03T07:37:02Z</time>
      </trkpt>
      <trkpt lat="48.51298" lon="1.94748">
        <ele>115.8</ele>
        <time>2025-04-03T07:37:10Z</time>
      </trkpt>
      <trkpt lat="48.5129" lon="1.94741">
        <ele>116.4</ele>
        <time>2025-04-03T07:37:17Z</time>
      </trkpt>
      <trkpt lat="48.51283" lon="1.9473">
        <ele>116.7</ele>
        <time>2025-04-03T07:37:24Z</time>
      </trkpt>
      <trkpt lat="48.51277" lon="1.94719">
        <ele>117.1</ele>
        <time>2025-04-03T07:37:31Z</time>
      </trkpt>
      <trkpt lat="48.51275" lon="1.94704">
        <ele>117.8</ele>
        <time>2025-04-03T07:37:39Z</time>
      </trkpt>
      <trkpt lat="48.51274" lon="1.9469">
        <ele>118.3</ele>
        <time>2025-04-03T07:37:47Z</time>
      </trkpt>
      <trkpt lat="48.51273" lon="1.94675">
        <ele>118.5</ele>
        <time>2025-04-03T07:37:55Z</time>
      </trkpt>
      <trkpt lat="48.51274" lon="1.9466">
        <ele>118.4</ele>
        <time>2025-04-03T07:38:03Z</time>
      </trkpt>
      <trkpt lat="48.51273" lon="1.94647">
        <ele>118.7</ele>
        <time>2025-04-03T07:38:09Z</time>
      </trkpt>
      <trkpt lat="48.51271" lon="1.94633">
        <ele>119.4</ele>
        <time>2025-04-03T07:38:15Z</time>
      </trkpt>
      <trkpt lat="48.51275" lon="1.9462">
        <ele>117.8</ele>
        <time>2025-04-03T07:38:22Z</time>
      </trkpt>
      <trkpt lat="48.51277" lon="1.94606">
        <ele>117.3</ele>
        <time>2025-04-03T07:38:29Z</time>
      </trkpt>
      <trkpt lat="48.51278" lon="1.94592">
        <ele>117</ele>
        <time>2025-04-03T07:38:35Z</time>
      </trkpt>
      <trkpt lat="48.51274" lon="1.94579">
        <ele>117.9</ele>
        <time>2025-04-03T07:38:41Z</time>
      </trkpt>
      <trkpt lat="48.51279" lon="1.94567">
        <ele>116.9</ele>
        <time>2025-04-03T07:38:46Z</time>
      </trkpt>
      <trkpt lat="48.51285" lon="1.94557">
        <ele>116.5</ele>
        <time>2025-04-03T07:38:51Z</time>
      </trkpt>
      <trkpt lat="48.51292" lon="1.94546">
        <ele>116.3</ele>
        <time>2025-04-03T07:38:57Z</time>
      </trkpt>
      <trkpt lat="48.51297" lon="1.94532">
        <ele>116.5</ele>
        <time>2025-04-03T07:39:05Z</time>
      </trkpt>
      <trkpt lat="48.513" lon="1.94518">
        <ele>116.8</ele>
        <time>2025-04-03T07:39:13Z</time>
      </trkpt>
      <trkpt lat="48.51306" lon="1.94505">
        <ele>116.8</ele>
        <time>2025-04-03T07:39:20Z</time>
      </trkpt>
      <trkpt lat="48.51314" lon="1.94499">
        <ele>116.4</ele>
        <time>2025-04-03T07:39:26Z</time>
      </trkpt>
      <trkpt lat="48.51323" lon="1.94501">
        <ele>115.7</ele>
        <time>2025-04-03T07:39:33Z</time>
      </trkpt>
      <trkpt lat="48.51326" lon="1.94515">
        <ele>115.4</ele>
        <time>2025-04-03T07:39:39Z</time>
      </trkpt>
      <trkpt lat="48.51331" lon="1.94529">
        <ele>115</ele>
        <time>2025-04-03T07:39:45Z</time>
      </trkpt>
      <trkpt lat="48.51336" lon="1.9454">
        <ele>114.5</ele>
        <time>2025-04-03T07:39:51Z</time>
      </trkpt>
      <trkpt lat="48.51342" lon="1.94552">
        <ele>114.1</ele>
        <time>2025-04-03T07:39:57Z</time>
      </trkpt>
      <trkpt lat="48.51349" lon="1.94562">
        <ele>114</ele>
        <time>2025-04-03T07:40:04Z</time>
      </trkpt>
      <trkpt lat="48.51357" lon="1.94556">
        <ele>114</ele>
        <time>2025-04-03T07:40:11Z</time>
      </trkpt>
      <trkpt lat="48.51361" lon="1.94543">
        <ele>114</ele>
        <time>2025-04-03T07:40:21Z</time>
      </trkpt>
      <trkpt lat="48.51354" lon="1.94534">
        <ele>114.2</ele>
        <time>2025-04-03T07:40:29Z</time>
      </trkpt>
      <trkpt lat="48.51353" lon="1.94519">
        <ele>114.5</ele>
        <time>2025-04-03T07:40:38Z</time>
      </trkpt>
      <trkpt lat="48.51351" lon="1.94504">
        <ele>114.9</ele>
        <time>2025-04-03T07:40:46Z</time>
      </trkpt>
      <trkpt lat="48.5135" lon="1.9449">
        <ele>115.2</ele>
        <time>2025-04-03T07:40:54Z</time>
      </trkpt>
      <trkpt lat="48.51349" lon="1.94475">
        <ele>115.4</ele>
        <time>2025-04-03T07:41:02Z</time>
      </trkpt>
      <trkpt lat="48.51345" lon="1.94461">
        <ele>115.6</ele>
        <time>2025-04-03T07:41:10Z</time>
      </trkpt>
      <trkpt lat="48.51344" lon="1.94447">
        <ele>115.6</ele>
        <time>2025-04-03T07:41:17Z</time>
      </trkpt>
      <trkpt lat="48.51344" lon="1.94433">
        <ele>116</ele>
        <time>2025-04-03T07:41:24Z</time>
      </trkpt>
      <trkpt lat="48.51344" lon="1.94417">
        <ele>116.6</ele>
        <time>2025-04-03T07:41:31Z</time>
      </trkpt>
      <trkpt lat="48.51346" lon="1.94403">
        <ele>117.3</ele>
        <time>2025-04-03T07:41:38Z</time>
      </trkpt>
      <trkpt lat="48.51349" lon="1.94388">
        <ele>117.9</ele>
        <time>2025-04-03T07:41:46Z</time>
      </trkpt>
      <trkpt lat="48.51354" lon="1.94375">
        <ele>117.6</ele>
        <time>2025-04-03T07:41:54Z</time>
      </trkpt>
      <trkpt lat="48.51359" lon="1.94364">
        <ele>117.2</ele>
        <time>2025-04-03T07:42:00Z</time>
      </trkpt>
      <trkpt lat="48.51364" lon="1.94352">
        <ele>117.1</ele>
        <time>2025-04-03T07:42:07Z</time>
      </trkpt>
      <trkpt lat="48.51368" lon="1.94338">
        <ele>117.1</ele>
        <time>2025-04-03T07:42:13Z</time>
      </trkpt>
      <trkpt lat="48.51372" lon="1.94324">
        <ele>117</ele>
        <time>2025-04-03T07:42:19Z</time>
      </trkpt>
      <trkpt lat="48.51377" lon="1.94312">
        <ele>116.6</ele>
        <time>2025-04-03T07:42:25Z</time>
      </trkpt>
      <trkpt lat="48.51381" lon="1.94298">
        <ele>116.4</ele>
        <time>2025-04-03T07:42:31Z</time>
      </trkpt>
      <trkpt lat="48.51384" lon="1.94284">
        <ele>116.5</ele>
        <time>2025-04-03T07:42:38Z</time>
      </trkpt>
      <trkpt lat="48.51385" lon="1.9427">
        <ele>116.8</ele>
        <time>2025-04-03T07:42:45Z</time>
      </trkpt>
      <trkpt lat="48.51386" lon="1.94257">
        <ele>117.2</ele>
        <time>2025-04-03T07:42:52Z</time>
      </trkpt>
      <trkpt lat="48.51385" lon="1.94242">
        <ele>117.5</ele>
        <time>2025-04-03T07:43:00Z</time>
      </trkpt>
      <trkpt lat="48.51382" lon="1.94228">
        <ele>118</ele>
        <time>2025-04-03T07:43:07Z</time>
      </trkpt>
      <trkpt lat="48.51377" lon="1.94215">
        <ele>118.9</ele>
        <time>2025-04-03T07:43:14Z</time>
      </trkpt>
      <trkpt lat="48.51372" lon="1.94203">
        <ele>120.1</ele>
        <time>2025-04-03T07:43:21Z</time>
      </trkpt>
      <trkpt lat="48.51367" lon="1.94191">
        <ele>121.2</ele>
        <time>2025-04-03T07:43:29Z</time>
      </trkpt>
      <trkpt lat="48.51361" lon="1.94179">
        <ele>122</ele>
        <time>2025-04-03T07:43:36Z</time>
      </trkpt>
      <trkpt lat="48.51354" lon="1.94168">
        <ele>123.2</ele>
        <time>2025-04-03T07:43:43Z</time>
      </trkpt>
      <trkpt lat="48.51347" lon="1.94157">
        <ele>124.5</ele>
        <time>2025-04-03T07:43:51Z</time>
      </trkpt>
      <trkpt lat="48.51341" lon="1.94146">
        <ele>125.5</ele>
        <time>2025-04-03T07:43:58Z</time>
      </trkpt>
      <trkpt lat="48.51336" lon="1.94134">
        <ele>126.3</ele>
        <time>2025-04-03T07:44:05Z</time>
      </trkpt>
      <trkpt lat="48.5133" lon="1.94122">
        <ele>127</ele>
        <time>2025-04-03T07:44:12Z</time>
      </trkpt>
      <trkpt lat="48.51325" lon="1.94111">
        <ele>127.5</ele>
        <time>2025-04-03T07:44:21Z</time>
      </trkpt>
      <trkpt lat="48.51319" lon="1.941">
        <ele>128</ele>
        <time>2025-04-03T07:44:28Z</time>
      </trkpt>
      <trkpt lat="48.51313" lon="1.94089">
        <ele>128.3</ele>
        <time>2025-04-03T07:44:35Z</time>
      </trkpt>
      <trkpt lat="48.51309" lon="1.94076">
        <ele>128</ele>
        <time>2025-04-03T07:44:42Z</time>
      </trkpt>
      <trkpt lat="48.51304" lon="1.94064">
        <ele>127.9</ele>
        <time>2025-04-03T07:44:49Z</time>
      </trkpt>
      <trkpt lat="48.51298" lon="1.94052">
        <ele>127.8</ele>
        <time>2025-04-03T07:44:56Z</time>
      </trkpt>
      <trkpt lat="48.51293" lon="1.9404">
        <ele>127.4</ele>
        <time>2025-04-03T07:45:03Z</time>
      </trkpt>
      <trkpt lat="48.51288" lon="1.94026">
        <ele>126.8</ele>
        <time>2025-04-03T07:45:10Z</time>
      </trkpt>
      <trkpt lat="48.51283" lon="1.94013">
        <ele>126.9</ele>
        <time>2025-04-03T07:45:17Z</time>
      </trkpt>
      <trkpt lat="48.51279" lon="1.93999">
        <ele>126.8</ele>
        <time>2025-04-03T07:45:24Z</time>
      </trkpt>
      <trkpt lat="48.51275" lon="1.93986">
        <ele>127.2</ele>
        <time>2025-04-03T07:45:30Z</time>
      </trkpt>
      <trkpt lat="48.51272" lon="1.93974">
        <ele>127.7</ele>
        <time>2025-04-03T07:45:37Z</time>
      </trkpt>
      <trkpt lat="48.51268" lon="1.93961">
        <ele>128.2</ele>
        <time>2025-04-03T07:45:44Z</time>
      </trkpt>
      <trkpt lat="48.51265" lon="1.93948">
        <ele>128.7</ele>
        <time>2025-04-03T07:45:50Z</time>
      </trkpt>
      <trkpt lat="48.51262" lon="1.93935">
        <ele>129.1</ele>
        <time>2025-04-03T07:45:56Z</time>
      </trkpt>
      <trkpt lat="48.5126" lon="1.93922">
        <ele>129.3</ele>
        <time>2025-04-03T07:46:02Z</time>
      </trkpt>
      <trkpt lat="48.51257" lon="1.93908">
        <ele>129.2</ele>
        <time>2025-04-03T07:46:09Z</time>
      </trkpt>
      <trkpt lat="48.51254" lon="1.93893">
        <ele>128.5</ele>
        <time>2025-04-03T07:46:16Z</time>
      </trkpt>
      <trkpt lat="48.51252" lon="1.93878">
        <ele>127.5</ele>
        <time>2025-04-03T07:46:23Z</time>
      </trkpt>
      <trkpt lat="48.51249" lon="1.93864">
        <ele>126.5</ele>
        <time>2025-04-03T07:46:30Z</time>
      </trkpt>
      <trkpt lat="48.51245" lon="1.9385">
        <ele>125.3</ele>
        <time>2025-04-03T07:46:37Z</time>
      </trkpt>
      <trkpt lat="48.5124" lon="1.93837">
        <ele>124.2</ele>
        <time>2025-04-03T07:46:44Z</time>
      </trkpt>
      <trkpt lat="48.51234" lon="1.93826">
        <ele>123.2</ele>
        <time>2025-04-03T07:46:50Z</time>
      </trkpt>
      <trkpt lat="48.51227" lon="1.93816">
        <ele>122.7</ele>
        <time>2025-04-03T07:46:56Z</time>
      </trkpt>
      <trkpt lat="48.51221" lon="1.93806">
        <ele>122.2</ele>
        <time>2025-04-03T07:47:02Z</time>
      </trkpt>
      <trkpt lat="48.51215" lon="1.93795">
        <ele>121.3</ele>
        <time>2025-04-03T07:47:08Z</time>
      </trkpt>
      <trkpt lat="48.51212" lon="1.93781">
        <ele>120.1</ele>
        <time>2025-04-03T07:47:15Z</time>
      </trkpt>
      <trkpt lat="48.51207" lon="1.93769">
        <ele>119.7</ele>
        <time>2025-04-03T07:47:22Z</time>
      </trkpt>
      <trkpt lat="48.512" lon="1.93757">
        <ele>119.7</ele>
        <time>2025-04-03T07:47:29Z</time>
      </trkpt>
      <trkpt lat="48.51195" lon="1.93744">
        <ele>119.5</ele>
        <time>2025-04-03T07:47:36Z</time>
      </trkpt>
      <trkpt lat="48.51191" lon="1.93731">
        <ele>119.2</ele>
        <time>2025-04-03T07:47:43Z</time>
      </trkpt>
      <trkpt lat="48.51187" lon="1.93717">
        <ele>119.1</ele>
        <time>2025-04-03T07:47:50Z</time>
      </trkpt>
      <trkpt lat="48.51183" lon="1.93704">
        <ele>119.4</ele>
        <time>2025-04-03T07:47:57Z</time>
      </trkpt>
      <trkpt lat="48.51179" lon="1.93691">
        <ele>119.7</ele>
        <time>2025-04-03T07:48:04Z</time>
      </trkpt>
      <trkpt lat="48.51175" lon="1.93676">
        <ele>120</ele>
        <time>2025-04-03T07:48:11Z</time>
      </trkpt>
      <trkpt lat="48.51171" lon="1.93662">
        <ele>120</ele>
        <time>2025-04-03T07:48:18Z</time>
      </trkpt>
      <trkpt lat="48.51167" lon="1.93647">
        <ele>119.5</ele>
        <time>2025-04-03T07:48:25Z</time>
      </trkpt>
      <trkpt lat="48.51163" lon="1.93635">
        <ele>119.9</ele>
        <time>2025-04-03T07:48:31Z</time>
      </trkpt>
      <trkpt lat="48.51158" lon="1.93621">
        <ele>120.1</ele>
        <time>2025-04-03T07:48:38Z</time>
      </trkpt>
      <trkpt lat="48.51154" lon="1.93606">
        <ele>120</ele>
        <time>2025-04-03T07:48:45Z</time>
      </trkpt>
      <trkpt lat="48.51149" lon="1.93593">
        <ele>119.7</ele>
        <time>2025-04-03T07:48:51Z</time>
      </trkpt>
      <trkpt lat="48.51145" lon="1.9358">
        <ele>119.2</ele>
        <time>2025-04-03T07:48:58Z</time>
      </trkpt>
      <trkpt lat="48.51143" lon="1.93566">
        <ele>119.1</ele>
        <time>2025-04-03T07:49:05Z</time>
      </trkpt>
      <trkpt lat="48.51141" lon="1.93552">
        <ele>118.7</ele>
        <time>2025-04-03T07:49:12Z</time>
      </trkpt>
      <trkpt lat="48.51139" lon="1.93538">
        <ele>118.4</ele>
        <time>2025-04-03T07:49:19Z</time>
      </trkpt>
      <trkpt lat="48.51137" lon="1.93524">
        <ele>118.3</ele>
        <time>2025-04-03T07:49:26Z</time>
      </trkpt>
      <trkpt lat="48.51134" lon="1.9351">
        <ele>118.8</ele>
        <time>2025-04-03T07:49:33Z</time>
      </trkpt>
      <trkpt lat="48.5113" lon="1.93496">
        <ele>119.3</ele>
        <time>2025-04-03T07:49:40Z</time>
      </trkpt>
      <trkpt lat="48.51127" lon="1.93482">
        <ele>119.7</ele>
        <time>2025-04-03T07:49:47Z</time>
      </trkpt>
      <trkpt lat="48.51123" lon="1.93468">
        <ele>120.2</ele>
        <time>2025-04-03T07:49:54Z</time>
      </trkpt>
      <trkpt lat="48.5112" lon="1.93455">
        <ele>120.3</ele>
        <time>2025-04-03T07:50:04Z</time>
      </trkpt>
      <trkpt lat="48.51116" lon="1.93442">
        <ele>120.4</ele>
        <time>2025-04-03T07:50:12Z</time>
      </trkpt>
      <trkpt lat="48.51112" lon="1.93428">
        <ele>120.3</ele>
        <time>2025-04-03T07:50:20Z</time>
      </trkpt>
      <trkpt lat="48.51104" lon="1.93421">
        <ele>121.7</ele>
        <time>2025-04-03T07:50:28Z</time>
      </trkpt>
      <trkpt lat="48.51106" lon="1.93407">
        <ele>121.1</ele>
        <time>2025-04-03T07:50:40Z</time>
      </trkpt>
      <trkpt lat="48.51102" lon="1.93394">
        <ele>121.7</ele>
        <time>2025-04-03T07:50:52Z</time>
      </trkpt>
      <trkpt lat="48.51098" lon="1.93381">
        <ele>122</ele>
        <time>2025-04-03T07:51:06Z</time>
      </trkpt>
      <trkpt lat="48.51094" lon="1.93368">
        <ele>122.3</ele>
        <time>2025-04-03T07:51:16Z</time>
      </trkpt>
      <trkpt lat="48.5109" lon="1.93356">
        <ele>122.8</ele>
        <time>2025-04-03T07:51:23Z</time>
      </trkpt>
      <trkpt lat="48.51085" lon="1.93343">
        <ele>123.7</ele>
        <time>2025-04-03T07:51:32Z</time>
      </trkpt>
      <trkpt lat="48.51084" lon="1.93329">
        <ele>123.9</ele>
        <time>2025-04-03T07:51:41Z</time>
      </trkpt>
      <trkpt lat="48.51082" lon="1.93316">
        <ele>124.3</ele>
        <time>2025-04-03T07:51:49Z</time>
      </trkpt>
      <trkpt lat="48.51081" lon="1.93301">
        <ele>124.5</ele>
        <time>2025-04-03T07:51:58Z</time>
      </trkpt>
      <trkpt lat="48.51079" lon="1.93286">
        <ele>124.8</ele>
        <time>2025-04-03T07:53:59Z</time>
      </trkpt>
      <trkpt lat="48.51073" lon="1.93277">
        <ele>126.2</ele>
        <time>2025-04-03T07:54:08Z</time>
      </trkpt>
      <trkpt lat="48.51068" lon="1.93264">
        <ele>126.8</ele>
        <time>2025-04-03T07:54:18Z</time>
      </trkpt>
      <trkpt lat="48.51064" lon="1.93251">
        <ele>127.3</ele>
        <time>2025-04-03T07:54:27Z</time>
      </trkpt>
      <trkpt lat="48.51058" lon="1.9324">
        <ele>128.1</ele>
        <time>2025-04-03T07:54:36Z</time>
      </trkpt>
      <trkpt lat="48.51051" lon="1.9323">
        <ele>129.2</ele>
        <time>2025-04-03T07:54:44Z</time>
      </trkpt>
      <trkpt lat="48.51044" lon="1.93219">
        <ele>130.1</ele>
        <time>2025-04-03T07:54:53Z</time>
      </trkpt>
      <trkpt lat="48.5104" lon="1.93207">
        <ele>129.7</ele>
        <time>2025-04-03T07:55:04Z</time>
      </trkpt>
      <trkpt lat="48.5103" lon="1.93205">
        <ele>131.7</ele>
        <time>2025-04-03T07:55:12Z</time>
      </trkpt>
      <trkpt lat="48.5102" lon="1.93205">
        <ele>133</ele>
        <time>2025-04-03T07:55:19Z</time>
      </trkpt>
      <trkpt lat="48.51011" lon="1.93207">
        <ele>134.4</ele>
        <time>2025-04-03T07:55:26Z</time>
      </trkpt>
      <trkpt lat="48.51002" lon="1.93209">
        <ele>135.8</ele>
        <time>2025-04-03T07:55:34Z</time>
      </trkpt>
      <trkpt lat="48.50994" lon="1.93214">
        <ele>136.7</ele>
        <time>2025-04-03T07:55:43Z</time>
      </trkpt>
      <trkpt lat="48.50987" lon="1.93223">
        <ele>138.1</ele>
        <time>2025-04-03T07:55:53Z</time>
      </trkpt>
      <trkpt lat="48.50981" lon="1.93235">
        <ele>139.8</ele>
        <time>2025-04-03T07:56:04Z</time>
      </trkpt>
      <trkpt lat="48.50978" lon="1.93248">
        <ele>142</ele>
        <time>2025-04-03T07:56:14Z</time>
      </trkpt>
      <trkpt lat="48.50978" lon="1.93262">
        <ele>143.5</ele>
        <time>2025-04-03T07:56:24Z</time>
      </trkpt>
      <trkpt lat="48.50976" lon="1.93275">
        <ele>145</ele>
        <time>2025-04-03T07:56:33Z</time>
      </trkpt>
      <trkpt lat="48.50975" lon="1.9329">
        <ele>146.3</ele>
        <time>2025-04-03T07:56:43Z</time>
      </trkpt>
      <trkpt lat="48.50975" lon="1.93305">
        <ele>147.3</ele>
        <time>2025-04-03T07:56:52Z</time>
      </trkpt>
      <trkpt lat="48.50972" lon="1.93318">
        <ele>148</ele>
        <time>2025-04-03T07:57:01Z</time>
      </trkpt>
      <trkpt lat="48.50969" lon="1.93331">
        <ele>148.4</ele>
        <time>2025-04-03T07:57:10Z</time>
      </trkpt>
      <trkpt lat="48.50966" lon="1.93344">
        <ele>148.8</ele>
        <time>2025-04-03T07:57:18Z</time>
      </trkpt>
      <trkpt lat="48.50962" lon="1.93358">
        <ele>149.4</ele>
        <time>2025-04-03T07:57:25Z</time>
      </trkpt>
      <trkpt lat="48.50957" lon="1.93371">
        <ele>150.2</ele>
        <time>2025-04-03T07:57:33Z</time>
      </trkpt>
      <trkpt lat="48.50953" lon="1.93385">
        <ele>150.8</ele>
        <time>2025-04-03T07:57:41Z</time>
      </trkpt>
      <trkpt lat="48.50948" lon="1.93396">
        <ele>151.5</ele>
        <time>2025-04-03T07:57:49Z</time>
      </trkpt>
      <trkpt lat="48.50943" lon="1.93409">
        <ele>152.1</ele>
        <time>2025-04-03T07:57:57Z</time>
      </trkpt>
      <trkpt lat="48.50941" lon="1.93423">
        <ele>152.6</ele>
        <time>2025-04-03T07:58:05Z</time>
      </trkpt>
      <trkpt lat="48.50935" lon="1.93435">
        <ele>153.5</ele>
        <time>2025-04-03T07:58:13Z</time>
      </trkpt>
      <trkpt lat="48.50926" lon="1.9343">
        <ele>154.2</ele>
        <time>2025-04-03T07:58:22Z</time>
      </trkpt>
      <trkpt lat="48.50917" lon="1.93427">
        <ele>155</ele>
        <time>2025-04-03T07:58:30Z</time>
      </trkpt>
      <trkpt lat="48.50909" lon="1.93434">
        <ele>155.2</ele>
        <time>2025-04-03T07:58:39Z</time>
      </trkpt>
      <trkpt lat="48.50906" lon="1.93447">
        <ele>155.4</ele>
        <time>2025-04-03T07:58:55Z</time>
      </trkpt>
      <trkpt lat="48.50901" lon="1.93459">
        <ele>155.6</ele>
        <time>2025-04-03T08:02:06Z</time>
      </trkpt>
      <trkpt lat="48.50897" lon="1.93473">
        <ele>155.7</ele>
        <time>2025-04-03T08:02:15Z</time>
      </trkpt>
      <trkpt lat="48.50891" lon="1.93485">
        <ele>156</ele>
        <time>2025-04-03T08:02:23Z</time>
      </trkpt>
      <trkpt lat="48.50886" lon="1.93497">
        <ele>156.1</ele>
        <time>2025-04-03T08:02:30Z</time>
      </trkpt>
      <trkpt lat="48.50882" lon="1.93509">
        <ele>156.5</ele>
        <time>2025-04-03T08:02:37Z</time>
      </trkpt>
      <trkpt lat="48.50877" lon="1.93521">
        <ele>156.8</ele>
        <time>2025-04-03T08:02:44Z</time>
      </trkpt>
      <trkpt lat="48.50873" lon="1.93533">
        <ele>157</ele>
        <time>2025-04-03T08:02:51Z</time>
      </trkpt>
      <trkpt lat="48.50868" lon="1.93545">
        <ele>157</ele>
        <time>2025-04-03T08:02:58Z</time>
      </trkpt>
      <trkpt lat="48.50863" lon="1.93557">
        <ele>157</ele>
        <time>2025-04-03T08:03:05Z</time>
      </trkpt>
      <trkpt lat="48.50859" lon="1.93571">
        <ele>157.6</ele>
        <time>2025-04-03T08:03:12Z</time>
      </trkpt>
      <trkpt lat="48.50854" lon="1.93584">
        <ele>158</ele>
        <time>2025-04-03T08:03:19Z</time>
      </trkpt>
      <trkpt lat="48.50849" lon="1.93595">
        <ele>158</ele>
        <time>2025-04-03T08:03:26Z</time>
      </trkpt>
      <trkpt lat="48.50844" lon="1.93607">
        <ele>158</ele>
        <time>2025-04-03T08:03:33Z</time>
      </trkpt>
      <trkpt lat="48.50839" lon="1.9362">
        <ele>158</ele>
        <time>2025-04-03T08:03:40Z</time>
      </trkpt>
      <trkpt lat="48.50834" lon="1.93633">
        <ele>158</ele>
        <time>2025-04-03T08:03:47Z</time>
      </trkpt>
      <trkpt lat="48.50828" lon="1.93646">
        <ele>158</ele>
        <time>2025-04-03T08:03:54Z</time>
      </trkpt>
      <trkpt lat="48.50823" lon="1.93656">
        <ele>158</ele>
        <time>2025-04-03T08:04:01Z</time>
      </trkpt>
      <trkpt lat="48.50818" lon="1.93669">
        <ele>158</ele>
        <time>2025-04-03T08:04:08Z</time>
      </trkpt>
      <trkpt lat="48.50813" lon="1.93683">
        <ele>158</ele>
        <time>2025-04-03T08:04:15Z</time>
      </trkpt>
      <trkpt lat="48.50808" lon="1.93695">
        <ele>158</ele>
        <time>2025-04-03T08:04:21Z</time>
      </trkpt>
      <trkpt lat="48.50803" lon="1.93708">
        <ele>158</ele>
        <time>2025-04-03T08:04:28Z</time>
      </trkpt>
      <trkpt lat="48.50798" lon="1.93721">
        <ele>158</ele>
        <time>2025-04-03T08:04:35Z</time>
      </trkpt>
      <trkpt lat="48.50793" lon="1.93735">
        <ele>158</ele>
        <time>2025-04-03T08:04:42Z</time>
      </trkpt>
      <trkpt lat="48.50788" lon="1.93748">
        <ele>158</ele>
        <time>2025-04-03T08:04:49Z</time>
      </trkpt>
      <trkpt lat="48.50782" lon="1.93761">
        <ele>158</ele>
        <time>2025-04-03T08:04:56Z</time>
      </trkpt>
      <trkpt lat="48.50777" lon="1.93774">
        <ele>158</ele>
        <time>2025-04-03T08:05:03Z</time>
      </trkpt>
      <trkpt lat="48.50772" lon="1.93786">
        <ele>158</ele>
        <time>2025-04-03T08:05:09Z</time>
      </trkpt>
      <trkpt lat="48.50766" lon="1.93799">
        <ele>158</ele>
        <time>2025-04-03T08:05:16Z</time>
      </trkpt>
      <trkpt lat="48.50762" lon="1.93811">
        <ele>158</ele>
        <time>2025-04-03T08:05:22Z</time>
      </trkpt>
      <trkpt lat="48.50756" lon="1.93824">
        <ele>158</ele>
        <time>2025-04-03T08:05:29Z</time>
      </trkpt>
      <trkpt lat="48.5075" lon="1.93836">
        <ele>158</ele>
        <time>2025-04-03T08:05:36Z</time>
      </trkpt>
      <trkpt lat="48.50745" lon="1.93849">
        <ele>158</ele>
        <time>2025-04-03T08:05:43Z</time>
      </trkpt>
      <trkpt lat="48.50739" lon="1.93862">
        <ele>158</ele>
        <time>2025-04-03T08:05:50Z</time>
      </trkpt>
      <trkpt lat="48.50733" lon="1.93875">
        <ele>158</ele>
        <time>2025-04-03T08:05:57Z</time>
      </trkpt>
      <trkpt lat="48.50728" lon="1.93888">
        <ele>158</ele>
        <time>2025-04-03T08:06:04Z</time>
      </trkpt>
      <trkpt lat="48.50722" lon="1.93901">
        <ele>158</ele>
        <time>2025-04-03T08:06:11Z</time>
      </trkpt>
      <trkpt lat="48.50717" lon="1.93913">
        <ele>158</ele>
        <time>2025-04-03T08:06:18Z</time>
      </trkpt>
      <trkpt lat="48.50711" lon="1.93926">
        <ele>158</ele>
        <time>2025-04-03T08:06:25Z</time>
      </trkpt>
      <trkpt lat="48.50706" lon="1.93939">
        <ele>158</ele>
        <time>2025-04-03T08:06:32Z</time>
      </trkpt>
      <trkpt lat="48.50701" lon="1.93952">
        <ele>158</ele>
        <time>2025-04-03T08:06:39Z</time>
      </trkpt>
      <trkpt lat="48.50695" lon="1.93965">
        <ele>158</ele>
        <time>2025-04-03T08:06:46Z</time>
      </trkpt>
      <trkpt lat="48.5069" lon="1.93977">
        <ele>158</ele>
        <time>2025-04-03T08:06:53Z</time>
      </trkpt>
      <trkpt lat="48.50685" lon="1.9399">
        <ele>158</ele>
        <time>2025-04-03T08:07:00Z</time>
      </trkpt>
      <trkpt lat="48.5068" lon="1.94002">
        <ele>158</ele>
        <time>2025-04-03T08:07:06Z</time>
      </trkpt>
      <trkpt lat="48.50675" lon="1.94013">
        <ele>158</ele>
        <time>2025-04-03T08:07:12Z</time>
      </trkpt>
      <trkpt lat="48.5067" lon="1.94026">
        <ele>158</ele>
        <time>2025-04-03T08:07:19Z</time>
      </trkpt>
      <trkpt lat="48.50664" lon="1.94039">
        <ele>157.9</ele>
        <time>2025-04-03T08:07:26Z</time>
      </trkpt>
      <trkpt lat="48.50664" lon="1.94053">
        <ele>157.9</ele>
        <time>2025-04-03T08:07:34Z</time>
      </trkpt>
      <trkpt lat="48.50671" lon="1.94061">
        <ele>157.8</ele>
        <time>2025-04-03T08:07:41Z</time>
      </trkpt>
      <trkpt lat="48.50678" lon="1.94071">
        <ele>157.7</ele>
        <time>2025-04-03T08:07:48Z</time>
      </trkpt>
      <trkpt lat="48.50685" lon="1.94081">
        <ele>157.7</ele>
        <time>2025-04-03T08:07:55Z</time>
      </trkpt>
      <trkpt lat="48.50692" lon="1.94092">
        <ele>157.9</ele>
        <time>2025-04-03T08:08:02Z</time>
      </trkpt>
      <trkpt lat="48.50699" lon="1.94102">
        <ele>158</ele>
        <time>2025-04-03T08:08:08Z</time>
      </trkpt>
      <trkpt lat="48.50706" lon="1.94111">
        <ele>158</ele>
        <time>2025-04-03T08:08:14Z</time>
      </trkpt>
      <trkpt lat="48.50712" lon="1.9412">
        <ele>158</ele>
        <time>2025-04-03T08:08:20Z</time>
      </trkpt>
      <trkpt lat="48.50719" lon="1.94131">
        <ele>158</ele>
        <time>2025-04-03T08:08:27Z</time>
      </trkpt>
      <trkpt lat="48.50727" lon="1.94141">
        <ele>158</ele>
        <time>2025-04-03T08:08:34Z</time>
      </trkpt>
      <trkpt lat="48.50734" lon="1.94151">
        <ele>158</ele>
        <time>2025-04-03T08:08:41Z</time>
      </trkpt>
      <trkpt lat="48.50741" lon="1.94162">
        <ele>158</ele>
        <time>2025-04-03T08:08:48Z</time>
      </trkpt>
      <trkpt lat="48.50749" lon="1.94173">
        <ele>158</ele>
        <time>2025-04-03T08:08:55Z</time>
      </trkpt>
      <trkpt lat="48.50756" lon="1.94183">
        <ele>157.9</ele>
        <time>2025-04-03T08:09:02Z</time>
      </trkpt>
      <trkpt lat="48.50763" lon="1.94193">
        <ele>157.6</ele>
        <time>2025-04-03T08:09:09Z</time>
      </trkpt>
      <trkpt lat="48.5077" lon="1.94204">
        <ele>157.4</ele>
        <time>2025-04-03T08:09:16Z</time>
      </trkpt>
      <trkpt lat="48.50777" lon="1.94215">
        <ele>157.7</ele>
        <time>2025-04-03T08:09:23Z</time>
      </trkpt>
      <trkpt lat="48.50784" lon="1.94224">
        <ele>157.7</ele>
        <time>2025-04-03T08:09:29Z</time>
      </trkpt>
      <trkpt lat="48.50791" lon="1.94235">
        <ele>157.5</ele>
        <time>2025-04-03T08:09:36Z</time>
      </trkpt>
      <trkpt lat="48.50798" lon="1.94244">
        <ele>157.6</ele>
        <time>2025-04-03T08:09:43Z</time>
      </trkpt>
      <trkpt lat="48.50805" lon="1.94255">
        <ele>157.8</ele>
        <time>2025-04-03T08:09:50Z</time>
      </trkpt>
      <trkpt lat="48.50812" lon="1.94266">
        <ele>157.6</ele>
        <time>2025-04-03T08:09:57Z</time>
      </trkpt>
      <trkpt lat="48.50819" lon="1.94276">
        <ele>157.5</ele>
        <time>2025-04-03T08:10:04Z</time>
      </trkpt>
      <trkpt lat="48.50826" lon="1.94286">
        <ele>157.7</ele>
        <time>2025-04-03T08:10:11Z</time>
      </trkpt>
      <trkpt lat="48.50833" lon="1.94297">
        <ele>158</ele>
        <time>2025-04-03T08:10:18Z</time>
      </trkpt>
      <trkpt lat="48.50841" lon="1.94307">
        <ele>158</ele>
        <time>2025-04-03T08:10:25Z</time>
      </trkpt>
      <trkpt lat="48.50847" lon="1.94317">
        <ele>157.8</ele>
        <time>2025-04-03T08:10:31Z</time>
      </trkpt>
      <trkpt lat="48.50854" lon="1.94327">
        <ele>157.8</ele>
        <time>2025-04-03T08:10:37Z</time>
      </trkpt>
      <trkpt lat="48.50861" lon="1.94338">
        <ele>158</ele>
        <time>2025-04-03T08:10:44Z</time>
      </trkpt>
      <trkpt lat="48.50868" lon="1.94349">
        <ele>157.8</ele>
        <time>2025-04-03T08:10:51Z</time>
      </trkpt>
      <trkpt lat="48.50875" lon="1.94361">
        <ele>157.5</ele>
        <time>2025-04-03T08:10:58Z</time>
      </trkpt>
      <trkpt lat="48.50881" lon="1.94373">
        <ele>157.5</ele>
        <time>2025-04-03T08:11:05Z</time>
      </trkpt>
      <trkpt lat="48.50888" lon="1.94384">
        <ele>157.8</ele>
        <time>2025-04-03T08:11:12Z</time>
      </trkpt>
      <trkpt lat="48.50894" lon="1.94395">
        <ele>157.7</ele>
        <time>2025-04-03T08:11:18Z</time>
      </trkpt>
      <trkpt lat="48.509" lon="1.94405">
        <ele>157.2</ele>
        <time>2025-04-03T08:11:24Z</time>
      </trkpt>
      <trkpt lat="48.50906" lon="1.94417">
        <ele>157</ele>
        <time>2025-04-03T08:11:31Z</time>
      </trkpt>
      <trkpt lat="48.50912" lon="1.94429">
        <ele>157.4</ele>
        <time>2025-04-03T08:11:38Z</time>
      </trkpt>
      <trkpt lat="48.50918" lon="1.9444">
        <ele>157.8</ele>
        <time>2025-04-03T08:11:45Z</time>
      </trkpt>
      <trkpt lat="48.50925" lon="1.94451">
        <ele>157.7</ele>
        <time>2025-04-03T08:11:52Z</time>
      </trkpt>
      <trkpt lat="48.50931" lon="1.94464">
        <ele>157.5</ele>
        <time>2025-04-03T08:11:59Z</time>
      </trkpt>
      <trkpt lat="48.50937" lon="1.94476">
        <ele>157.3</ele>
        <time>2025-04-03T08:12:06Z</time>
      </trkpt>
      <trkpt lat="48.50943" lon="1.94486">
        <ele>157.5</ele>
        <time>2025-04-03T08:12:13Z</time>
      </trkpt>
      <trkpt lat="48.5095" lon="1.94497">
        <ele>157.7</ele>
        <time>2025-04-03T08:12:20Z</time>
      </trkpt>
      <trkpt lat="48.50955" lon="1.94509">
        <ele>157.4</ele>
        <time>2025-04-03T08:12:27Z</time>
      </trkpt>
      <trkpt lat="48.50962" lon="1.94521">
        <ele>157.1</ele>
        <time>2025-04-03T08:12:34Z</time>
      </trkpt>
      <trkpt lat="48.50968" lon="1.94531">
        <ele>157</ele>
        <time>2025-04-03T08:12:40Z</time>
      </trkpt>
      <trkpt lat="48.50975" lon="1.94543">
        <ele>157</ele>
        <time>2025-04-03T08:12:47Z</time>
      </trkpt>
      <trkpt lat="48.50982" lon="1.94554">
        <ele>157</ele>
        <time>2025-04-03T08:12:54Z</time>
      </trkpt>
      <trkpt lat="48.50989" lon="1.94565">
        <ele>157</ele>
        <time>2025-04-03T08:13:01Z</time>
      </trkpt>
      <trkpt lat="48.50995" lon="1.94576">
        <ele>157</ele>
        <time>2025-04-03T08:13:08Z</time>
      </trkpt>
      <trkpt lat="48.51002" lon="1.94586">
        <ele>157</ele>
        <time>2025-04-03T08:13:14Z</time>
      </trkpt>
      <trkpt lat="48.51008" lon="1.94595">
        <ele>157</ele>
        <time>2025-04-03T08:13:20Z</time>
      </trkpt>
      <trkpt lat="48.51015" lon="1.94607">
        <ele>157</ele>
        <time>2025-04-03T08:13:27Z</time>
      </trkpt>
      <trkpt lat="48.51022" lon="1.94617">
        <ele>157</ele>
        <time>2025-04-03T08:13:34Z</time>
      </trkpt>
      <trkpt lat="48.51029" lon="1.94629">
        <ele>157</ele>
        <time>2025-04-03T08:13:41Z</time>
      </trkpt>
      <trkpt lat="48.51036" lon="1.94639">
        <ele>157</ele>
        <time>2025-04-03T08:13:47Z</time>
      </trkpt>
      <trkpt lat="48.51043" lon="1.9465">
        <ele>157</ele>
        <time>2025-04-03T08:13:54Z</time>
      </trkpt>
      <trkpt lat="48.5105" lon="1.94661">
        <ele>157</ele>
        <time>2025-04-03T08:14:01Z</time>
      </trkpt>
      <trkpt lat="48.51057" lon="1.94671">
        <ele>156.8</ele>
        <time>2025-04-03T08:14:08Z</time>
      </trkpt>
      <trkpt lat="48.51064" lon="1.94682">
        <ele>156.3</ele>
        <time>2025-04-03T08:14:15Z</time>
      </trkpt>
      <trkpt lat="48.5107" lon="1.94692">
        <ele>156</ele>
        <time>2025-04-03T08:14:22Z</time>
      </trkpt>
      <trkpt lat="48.51077" lon="1.94702">
        <ele>156</ele>
        <time>2025-04-03T08:14:29Z</time>
      </trkpt>
      <trkpt lat="48.51085" lon="1.94713">
        <ele>156</ele>
        <time>2025-04-03T08:14:36Z</time>
      </trkpt>
      <trkpt lat="48.51092" lon="1.94723">
        <ele>156</ele>
        <time>2025-04-03T08:14:43Z</time>
      </trkpt>
      <trkpt lat="48.51099" lon="1.94733">
        <ele>156</ele>
        <time>2025-04-03T08:14:50Z</time>
      </trkpt>
      <trkpt lat="48.51105" lon="1.94744">
        <ele>156</ele>
        <time>2025-04-03T08:14:57Z</time>
      </trkpt>
      <trkpt lat="48.51112" lon="1.94754">
        <ele>155.8</ele>
        <time>2025-04-03T08:15:03Z</time>
      </trkpt>
      <trkpt lat="48.51119" lon="1.94765">
        <ele>155.3</ele>
        <time>2025-04-03T08:15:10Z</time>
      </trkpt>
      <trkpt lat="48.51125" lon="1.94776">
        <ele>155</ele>
        <time>2025-04-03T08:15:17Z</time>
      </trkpt>
      <trkpt lat="48.51126" lon="1.94791">
        <ele>155.2</ele>
        <time>2025-04-03T08:15:25Z</time>
      </trkpt>
      <trkpt lat="48.51119" lon="1.94801">
        <ele>155.6</ele>
        <time>2025-04-03T08:15:32Z</time>
      </trkpt>
      <trkpt lat="48.51111" lon="1.94809">
        <ele>156</ele>
        <time>2025-04-03T08:15:39Z</time>
      </trkpt>
      <trkpt lat="48.51104" lon="1.94818">
        <ele>156</ele>
        <time>2025-04-03T08:15:46Z</time>
      </trkpt>
      <trkpt lat="48.51096" lon="1.94827">
        <ele>156</ele>
        <time>2025-04-03T08:15:53Z</time>
      </trkpt>
      <trkpt lat="48.51089" lon="1.94836">
        <ele>156</ele>
        <time>2025-04-03T08:16:00Z</time>
      </trkpt>
      <trkpt lat="48.51081" lon="1.94846">
        <ele>156</ele>
        <time>2025-04-03T08:16:07Z</time>
      </trkpt>
      <trkpt lat="48.51074" lon="1.94855">
        <ele>156</ele>
        <time>2025-04-03T08:16:14Z</time>
      </trkpt>
      <trkpt lat="48.51067" lon="1.94864">
        <ele>156</ele>
        <time>2025-04-03T08:16:21Z</time>
      </trkpt>
      <trkpt lat="48.51059" lon="1.94874">
        <ele>156</ele>
        <time>2025-04-03T08:16:28Z</time>
      </trkpt>
      <trkpt lat="48.51052" lon="1.94883">
        <ele>156</ele>
        <time>2025-04-03T08:16:35Z</time>
      </trkpt>
      <trkpt lat="48.51045" lon="1.94892">
        <ele>156</ele>
        <time>2025-04-03T08:16:42Z</time>
      </trkpt>
      <trkpt lat="48.51037" lon="1.94902">
        <ele>156</ele>
        <time>2025-04-03T08:16:49Z</time>
      </trkpt>
      <trkpt lat="48.5103" lon="1.9491">
        <ele>156</ele>
        <time>2025-04-03T08:16:56Z</time>
      </trkpt>
      <trkpt lat="48.51023" lon="1.94921">
        <ele>156</ele>
        <time>2025-04-03T08:17:03Z</time>
      </trkpt>
      <trkpt lat="48.51015" lon="1.9493">
        <ele>156</ele>
        <time>2025-04-03T08:17:11Z</time>
      </trkpt>
      <trkpt lat="48.51008" lon="1.94939">
        <ele>156</ele>
        <time>2025-04-03T08:17:18Z</time>
      </trkpt>
      <trkpt lat="48.51001" lon="1.94948">
        <ele>156</ele>
        <time>2025-04-03T08:17:25Z</time>
      </trkpt>
      <trkpt lat="48.50993" lon="1.94958">
        <ele>155.7</ele>
        <time>2025-04-03T08:17:32Z</time>
      </trkpt>
      <trkpt lat="48.50985" lon="1.94968">
        <ele>155.5</ele>
        <time>2025-04-03T08:17:40Z</time>
      </trkpt>
      <trkpt lat="48.50978" lon="1.94976">
        <ele>155.2</ele>
        <time>2025-04-03T08:17:47Z</time>
      </trkpt>
      <trkpt lat="48.5097" lon="1.94985">
        <ele>155</ele>
        <time>2025-04-03T08:17:54Z</time>
      </trkpt>
      <trkpt lat="48.50963" lon="1.94994">
        <ele>155</ele>
        <time>2025-04-03T08:18:01Z</time>
      </trkpt>
      <trkpt lat="48.50956" lon="1.95003">
        <ele>155</ele>
        <time>2025-04-03T08:18:08Z</time>
      </trkpt>
      <trkpt lat="48.50949" lon="1.95013">
        <ele>155</ele>
        <time>2025-04-03T08:18:15Z</time>
      </trkpt>
      <trkpt lat="48.50941" lon="1.95021">
        <ele>155.1</ele>
        <time>2025-04-03T08:18:22Z</time>
      </trkpt>
      <trkpt lat="48.50935" lon="1.95031">
        <ele>155.4</ele>
        <time>2025-04-03T08:18:29Z</time>
      </trkpt>
      <trkpt lat="48.50927" lon="1.9504">
        <ele>155.8</ele>
        <time>2025-04-03T08:18:36Z</time>
      </trkpt>
      <trkpt lat="48.50921" lon="1.95049">
        <ele>156</ele>
        <time>2025-04-03T08:18:42Z</time>
      </trkpt>
      <trkpt lat="48.50913" lon="1.95058">
        <ele>156</ele>
        <time>2025-04-03T08:18:49Z</time>
      </trkpt>
      <trkpt lat="48.50906" lon="1.95068">
        <ele>156</ele>
        <time>2025-04-03T08:18:57Z</time>
      </trkpt>
      <trkpt lat="48.50898" lon="1.95078">
        <ele>156</ele>
        <time>2025-04-03T08:19:04Z</time>
      </trkpt>
      <trkpt lat="48.50891" lon="1.95086">
        <ele>156</ele>
        <time>2025-04-03T08:19:11Z</time>
      </trkpt>
      <trkpt lat="48.50883" lon="1.95096">
        <ele>156</ele>
        <time>2025-04-03T08:19:19Z</time>
      </trkpt>
      <trkpt lat="48.50876" lon="1.95105">
        <ele>156</ele>
        <time>2025-04-03T08:19:26Z</time>
      </trkpt>
      <trkpt lat="48.50868" lon="1.95114">
        <ele>156</ele>
        <time>2025-04-03T08:19:33Z</time>
      </trkpt>
      <trkpt lat="48.50861" lon="1.95122">
        <ele>156</ele>
        <time>2025-04-03T08:19:40Z</time>
      </trkpt>
      <trkpt lat="48.50853" lon="1.95131">
        <ele>156</ele>
        <time>2025-04-03T08:19:47Z</time>
      </trkpt>
      <trkpt lat="48.50846" lon="1.9514">
        <ele>156</ele>
        <time>2025-04-03T08:19:54Z</time>
      </trkpt>
      <trkpt lat="48.5084" lon="1.95149">
        <ele>156.4</ele>
        <time>2025-04-03T08:20:01Z</time>
      </trkpt>
      <trkpt lat="48.50833" lon="1.95158">
        <ele>156.7</ele>
        <time>2025-04-03T08:20:08Z</time>
      </trkpt>
      <trkpt lat="48.50825" lon="1.95167">
        <ele>157</ele>
        <time>2025-04-03T08:20:15Z</time>
      </trkpt>
      <trkpt lat="48.50818" lon="1.95176">
        <ele>156.8</ele>
        <time>2025-04-03T08:20:22Z</time>
      </trkpt>
      <trkpt lat="48.50811" lon="1.95184">
        <ele>156.9</ele>
        <time>2025-04-03T08:20:28Z</time>
      </trkpt>
      <trkpt lat="48.50804" lon="1.95193">
        <ele>157</ele>
        <time>2025-04-03T08:20:35Z</time>
      </trkpt>
      <trkpt lat="48.50796" lon="1.95203">
        <ele>157</ele>
        <time>2025-04-03T08:20:43Z</time>
      </trkpt>
      <trkpt lat="48.50789" lon="1.95213">
        <ele>157</ele>
        <time>2025-04-03T08:20:50Z</time>
      </trkpt>
      <trkpt lat="48.50781" lon="1.95223">
        <ele>157</ele>
        <time>2025-04-03T08:20:57Z</time>
      </trkpt>
      <trkpt lat="48.50774" lon="1.95232">
        <ele>157</ele>
        <time>2025-04-03T08:21:04Z</time>
      </trkpt>
      <trkpt lat="48.50767" lon="1.95241">
        <ele>157</ele>
        <time>2025-04-03T08:21:10Z</time>
      </trkpt>
      <trkpt lat="48.5076" lon="1.95251">
        <ele>157</ele>
        <time>2025-04-03T08:21:17Z</time>
      </trkpt>
      <trkpt lat="48.50752" lon="1.95261">
        <ele>157</ele>
        <time>2025-04-03T08:21:24Z</time>
      </trkpt>
      <trkpt lat="48.50744" lon="1.9527">
        <ele>157</ele>
        <time>2025-04-03T08:21:31Z</time>
      </trkpt>
      <trkpt lat="48.50737" lon="1.95281">
        <ele>157</ele>
        <time>2025-04-03T08:21:38Z</time>
      </trkpt>
      <trkpt lat="48.5073" lon="1.95289">
        <ele>157</ele>
        <time>2025-04-03T08:21:44Z</time>
      </trkpt>
      <trkpt lat="48.50722" lon="1.95299">
        <ele>157</ele>
        <time>2025-04-03T08:21:51Z</time>
      </trkpt>
      <trkpt lat="48.50715" lon="1.95309">
        <ele>157.3</ele>
        <time>2025-04-03T08:21:58Z</time>
      </trkpt>
      <trkpt lat="48.50707" lon="1.95319">
        <ele>157.5</ele>
        <time>2025-04-03T08:22:05Z</time>
      </trkpt>
      <trkpt lat="48.507" lon="1.95329">
        <ele>157.8</ele>
        <time>2025-04-03T08:22:12Z</time>
      </trkpt>
      <trkpt lat="48.50692" lon="1.95338">
        <ele>157.8</ele>
        <time>2025-04-03T08:22:19Z</time>
      </trkpt>
      <trkpt lat="48.50685" lon="1.95347">
        <ele>157.7</ele>
        <time>2025-04-03T08:22:26Z</time>
      </trkpt>
      <trkpt lat="48.50677" lon="1.95357">
        <ele>157.7</ele>
        <time>2025-04-03T08:22:33Z</time>
      </trkpt>
      <trkpt lat="48.5067" lon="1.95367">
        <ele>157.7</ele>
        <time>2025-04-03T08:22:40Z</time>
      </trkpt>
      <trkpt lat="48.50663" lon="1.95376">
        <ele>157.4</ele>
        <time>2025-04-03T08:22:47Z</time>
      </trkpt>
      <trkpt lat="48.50656" lon="1.95385">
        <ele>157.1</ele>
        <time>2025-04-03T08:22:54Z</time>
      </trkpt>
      <trkpt lat="48.50648" lon="1.95393">
        <ele>157</ele>
        <time>2025-04-03T08:23:00Z</time>
      </trkpt>
      <trkpt lat="48.5064" lon="1.95402">
        <ele>157</ele>
        <time>2025-04-03T08:23:07Z</time>
      </trkpt>
      <trkpt lat="48.50633" lon="1.95412">
        <ele>157</ele>
        <time>2025-04-03T08:23:14Z</time>
      </trkpt>
      <trkpt lat="48.50626" lon="1.9542">
        <ele>157</ele>
        <time>2025-04-03T08:23:20Z</time>
      </trkpt>
      <trkpt lat="48.50618" lon="1.95429">
        <ele>157</ele>
        <time>2025-04-03T08:23:27Z</time>
      </trkpt>
      <trkpt lat="48.5061" lon="1.95438">
        <ele>157</ele>
        <time>2025-04-03T08:23:34Z</time>
      </trkpt>
      <trkpt lat="48.50603" lon="1.95448">
        <ele>157</ele>
        <time>2025-04-03T08:23:41Z</time>
      </trkpt>
      <trkpt lat="48.50596" lon="1.95457">
        <ele>157</ele>
        <time>2025-04-03T08:23:47Z</time>
      </trkpt>
      <trkpt lat="48.50588" lon="1.95466">
        <ele>157</ele>
        <time>2025-04-03T08:23:54Z</time>
      </trkpt>
      <trkpt lat="48.5058" lon="1.95475">
        <ele>157</ele>
        <time>2025-04-03T08:24:01Z</time>
      </trkpt>
      <trkpt lat="48.50572" lon="1.95485">
        <ele>157</ele>
        <time>2025-04-03T08:24:08Z</time>
      </trkpt>
      <trkpt lat="48.50565" lon="1.95496">
        <ele>157</ele>
        <time>2025-04-03T08:24:15Z</time>
      </trkpt>
      <trkpt lat="48.50558" lon="1.95504">
        <ele>156.9</ele>
        <time>2025-04-03T08:24:21Z</time>
      </trkpt>
      <trkpt lat="48.5055" lon="1.95513">
        <ele>156.5</ele>
        <time>2025-04-03T08:24:27Z</time>
      </trkpt>
      <trkpt lat="48.50543" lon="1.95524">
        <ele>156.1</ele>
        <time>2025-04-03T08:24:34Z</time>
      </trkpt>
      <trkpt lat="48.50535" lon="1.95534">
        <ele>156</ele>
        <time>2025-04-03T08:24:41Z</time>
      </trkpt>
      <trkpt lat="48.50528" lon="1.95543">
        <ele>156</ele>
        <time>2025-04-03T08:24:47Z</time>
      </trkpt>
      <trkpt lat="48.50521" lon="1.95551">
        <ele>156</ele>
        <time>2025-04-03T08:24:53Z</time>
      </trkpt>
      <trkpt lat="48.50513" lon="1.95561">
        <ele>156</ele>
        <time>2025-04-03T08:25:00Z</time>
      </trkpt>
      <trkpt lat="48.50505" lon="1.95571">
        <ele>156</ele>
        <time>2025-04-03T08:25:07Z</time>
      </trkpt>
      <trkpt lat="48.50498" lon="1.95581">
        <ele>156</ele>
        <time>2025-04-03T08:25:13Z</time>
      </trkpt>
      <trkpt lat="48.5049" lon="1.95591">
        <ele>156</ele>
        <time>2025-04-03T08:25:20Z</time>
      </trkpt>
      <trkpt lat="48.50483" lon="1.956">
        <ele>156</ele>
        <time>2025-04-03T08:25:26Z</time>
      </trkpt>
      <trkpt lat="48.50475" lon="1.95609">
        <ele>156</ele>
        <time>2025-04-03T08:25:33Z</time>
      </trkpt>
      <trkpt lat="48.50467" lon="1.9562">
        <ele>155.8</ele>
        <time>2025-04-03T08:25:40Z</time>
      </trkpt>
      <trkpt lat="48.5046" lon="1.9561">
        <ele>155.6</ele>
        <time>2025-04-03T08:26:25Z</time>
      </trkpt>
      <trkpt lat="48.50452" lon="1.95622">
        <ele>155.3</ele>
        <time>2025-04-03T08:26:31Z</time>
      </trkpt>
      <trkpt lat="48.50448" lon="1.95636">
        <ele>155.1</ele>
        <time>2025-04-03T08:26:36Z</time>
      </trkpt>
      <trkpt lat="48.50443" lon="1.95648">
        <ele>155</ele>
        <time>2025-04-03T08:26:42Z</time>
      </trkpt>
      <trkpt lat="48.50435" lon="1.95659">
        <ele>155</ele>
        <time>2025-04-03T08:26:49Z</time>
      </trkpt>
      <trkpt lat="48.50428" lon="1.95669">
        <ele>155</ele>
        <time>2025-04-03T08:26:56Z</time>
      </trkpt>
      <trkpt lat="48.50421" lon="1.9568">
        <ele>155</ele>
        <time>2025-04-03T08:27:03Z</time>
      </trkpt>
      <trkpt lat="48.50414" lon="1.95691">
        <ele>154.9</ele>
        <time>2025-04-03T08:27:10Z</time>
      </trkpt>
      <trkpt lat="48.50406" lon="1.957">
        <ele>154.5</ele>
        <time>2025-04-03T08:27:17Z</time>
      </trkpt>
      <trkpt lat="48.50398" lon="1.9571">
        <ele>154.1</ele>
        <time>2025-04-03T08:27:24Z</time>
      </trkpt>
      <trkpt lat="48.5039" lon="1.95718">
        <ele>154</ele>
        <time>2025-04-03T08:27:31Z</time>
      </trkpt>
      <trkpt lat="48.50383" lon="1.95726">
        <ele>154</ele>
        <time>2025-04-03T08:27:39Z</time>
      </trkpt>
      <trkpt lat="48.50375" lon="1.95735">
        <ele>154</ele>
        <time>2025-04-03T08:27:52Z</time>
      </trkpt>
      <trkpt lat="48.50369" lon="1.95745">
        <ele>154</ele>
        <time>2025-04-03T08:28:01Z</time>
      </trkpt>
      <trkpt lat="48.50363" lon="1.95755">
        <ele>154</ele>
        <time>2025-04-03T08:28:09Z</time>
      </trkpt>
      <trkpt lat="48.50357" lon="1.95767">
        <ele>154</ele>
        <time>2025-04-03T08:28:17Z</time>
      </trkpt>
      <trkpt lat="48.50351" lon="1.95778">
        <ele>154</ele>
        <time>2025-04-03T08:28:24Z</time>
      </trkpt>
      <trkpt lat="48.50345" lon="1.9579">
        <ele>153.8</ele>
        <time>2025-04-03T08:28:32Z</time>
      </trkpt>
      <trkpt lat="48.50341" lon="1.95802">
        <ele>153.4</ele>
        <time>2025-04-03T08:28:39Z</time>
      </trkpt>
      <trkpt lat="48.50338" lon="1.95816">
        <ele>153.2</ele>
        <time>2025-04-03T08:28:48Z</time>
      </trkpt>
      <trkpt lat="48.50338" lon="1.95831">
        <ele>153.2</ele>
        <time>2025-04-03T08:28:57Z</time>
      </trkpt>
      <trkpt lat="48.50343" lon="1.95842">
        <ele>153.2</ele>
        <time>2025-04-03T08:29:05Z</time>
      </trkpt>
      <trkpt lat="48.50351" lon="1.95851">
        <ele>153.2</ele>
        <time>2025-04-03T08:29:14Z</time>
      </trkpt>
      <trkpt lat="48.50358" lon="1.9586">
        <ele>153</ele>
        <time>2025-04-03T08:29:21Z</time>
      </trkpt>
      <trkpt lat="48.50365" lon="1.95871">
        <ele>153.2</ele>
        <time>2025-04-03T08:29:29Z</time>
      </trkpt>
      <trkpt lat="48.50372" lon="1.9588">
        <ele>153.4</ele>
        <time>2025-04-03T08:29:36Z</time>
      </trkpt>
      <trkpt lat="48.50377" lon="1.95892">
        <ele>153.5</ele>
        <time>2025-04-03T08:29:43Z</time>
      </trkpt>
      <trkpt lat="48.50383" lon="1.95903">
        <ele>153.3</ele>
        <time>2025-04-03T08:29:50Z</time>
      </trkpt>
      <trkpt lat="48.50388" lon="1.95915">
        <ele>153</ele>
        <time>2025-04-03T08:29:57Z</time>
      </trkpt>
      <trkpt lat="48.50394" lon="1.95926">
        <ele>153.1</ele>
        <time>2025-04-03T08:30:04Z</time>
      </trkpt>
      <trkpt lat="48.50399" lon="1.95938">
        <ele>153.1</ele>
        <time>2025-04-03T08:30:11Z</time>
      </trkpt>
      <trkpt lat="48.50405" lon="1.95951">
        <ele>152.9</ele>
        <time>2025-04-03T08:30:19Z</time>
      </trkpt>
      <trkpt lat="48.50403" lon="1.95964">
        <ele>152.6</ele>
        <time>2025-04-03T08:30:28Z</time>
      </trkpt>
      <trkpt lat="48.50395" lon="1.95972">
        <ele>152.2</ele>
        <time>2025-04-03T08:30:35Z</time>
      </trkpt>
      <trkpt lat="48.50386" lon="1.95976">
        <ele>151.9</ele>
        <time>2025-04-03T08:30:42Z</time>
      </trkpt>
      <trkpt lat="48.50377" lon="1.95981">
        <ele>151.5</ele>
        <time>2025-04-03T08:30:50Z</time>
      </trkpt>
      <trkpt lat="48.50369" lon="1.95987">
        <ele>150.9</ele>
        <time>2025-04-03T08:30:58Z</time>
      </trkpt>
      <trkpt lat="48.5036" lon="1.9599">
        <ele>150.3</ele>
        <time>2025-04-03T08:31:06Z</time>
      </trkpt>
      <trkpt lat="48.5035" lon="1.95991">
        <ele>149.5</ele>
        <time>2025-04-03T08:31:13Z</time>
      </trkpt>
      <trkpt lat="48.5034" lon="1.95993">
        <ele>148.7</ele>
        <time>2025-04-03T08:31:21Z</time>
      </trkpt>
      <trkpt lat="48.50331" lon="1.95997">
        <ele>148</ele>
        <time>2025-04-03T08:31:28Z</time>
      </trkpt>
      <trkpt lat="48.50322" lon="1.96001">
        <ele>147.6</ele>
        <time>2025-04-03T08:31:36Z</time>
      </trkpt>
      <trkpt lat="48.50313" lon="1.96006">
        <ele>147.3</ele>
        <time>2025-04-03T08:31:43Z</time>
      </trkpt>
      <trkpt lat="48.50304" lon="1.96012">
        <ele>147</ele>
        <time>2025-04-03T08:31:50Z</time>
      </trkpt>
      <trkpt lat="48.50304" lon="1.96026">
        <ele>147</ele>
        <time>2025-04-03T08:31:59Z</time>
      </trkpt>
      <trkpt lat="48.50311" lon="1.96035">
        <ele>147.2</ele>
        <time>2025-04-03T08:32:06Z</time>
      </trkpt>
      <trkpt lat="48.50317" lon="1.96045">
        <ele>147.1</ele>
        <time>2025-04-03T08:32:13Z</time>
      </trkpt>
      <trkpt lat="48.50323" lon="1.96057">
        <ele>147</ele>
        <time>2025-04-03T08:32:20Z</time>
      </trkpt>
      <trkpt lat="48.50329" lon="1.96069">
        <ele>147</ele>
        <time>2025-04-03T08:32:27Z</time>
      </trkpt>
      <trkpt lat="48.50334" lon="1.96082">
        <ele>147</ele>
        <time>2025-04-03T08:32:34Z</time>
      </trkpt>
      <trkpt lat="48.50339" lon="1.96094">
        <ele>146.8</ele>
        <time>2025-04-03T08:32:41Z</time>
      </trkpt>
      <trkpt lat="48.50343" lon="1.96109">
        <ele>146.4</ele>
        <time>2025-04-03T08:32:48Z</time>
      </trkpt>
      <trkpt lat="48.50345" lon="1.96122">
        <ele>146.3</ele>
        <time>2025-04-03T08:32:55Z</time>
      </trkpt>
      <trkpt lat="48.50349" lon="1.96136">
        <ele>146.1</ele>
        <time>2025-04-03T08:33:03Z</time>
      </trkpt>
      <trkpt lat="48.50354" lon="1.96149">
        <ele>146</ele>
        <time>2025-04-03T08:33:10Z</time>
      </trkpt>
      <trkpt lat="48.50359" lon="1.96162">
        <ele>146</ele>
        <time>2025-04-03T08:33:17Z</time>
      </trkpt>
      <trkpt lat="48.50363" lon="1.96176">
        <ele>145.8</ele>
        <time>2025-04-03T08:33:25Z</time>
      </trkpt>
      <trkpt lat="48.50366" lon="1.9619">
        <ele>145.6</ele>
        <time>2025-04-03T08:33:32Z</time>
      </trkpt>
      <trkpt lat="48.5037" lon="1.96203">
        <ele>145.5</ele>
        <time>2025-04-03T08:33:39Z</time>
      </trkpt>
      <trkpt lat="48.50373" lon="1.96218">
        <ele>145.5</ele>
        <time>2025-04-03T08:33:47Z</time>
      </trkpt>
      <trkpt lat="48.50377" lon="1.96231">
        <ele>145.6</ele>
        <time>2025-04-03T08:33:57Z</time>
      </trkpt>
      <trkpt lat="48.50381" lon="1.96244">
        <ele>145.7</ele>
        <time>2025-04-03T08:34:06Z</time>
      </trkpt>
      <trkpt lat="48.50388" lon="1.96255">
        <ele>146</ele>
        <time>2025-04-03T08:34:13Z</time>
      </trkpt>
      <trkpt lat="48.50393" lon="1.96266">
        <ele>146.2</ele>
        <time>2025-04-03T08:34:20Z</time>
      </trkpt>
      <trkpt lat="48.50399" lon="1.96277">
        <ele>146.4</ele>
        <time>2025-04-03T08:34:27Z</time>
      </trkpt>
      <trkpt lat="48.50405" lon="1.96289">
        <ele>146.2</ele>
        <time>2025-04-03T08:34:34Z</time>
      </trkpt>
      <trkpt lat="48.50411" lon="1.963">
        <ele>146</ele>
        <time>2025-04-03T08:34:41Z</time>
      </trkpt>
      <trkpt lat="48.50417" lon="1.96312">
        <ele>145.8</ele>
        <time>2025-04-03T08:34:49Z</time>
      </trkpt>
      <trkpt lat="48.5042" lon="1.96325">
        <ele>145.5</ele>
        <time>2025-04-03T08:34:55Z</time>
      </trkpt>
      <trkpt lat="48.50424" lon="1.96338">
        <ele>145</ele>
        <time>2025-04-03T08:35:02Z</time>
      </trkpt>
      <trkpt lat="48.50429" lon="1.96352">
        <ele>144.4</ele>
        <time>2025-04-03T08:35:09Z</time>
      </trkpt>
      <trkpt lat="48.50433" lon="1.96365">
        <ele>144</ele>
        <time>2025-04-03T08:35:15Z</time>
      </trkpt>
      <trkpt lat="48.50438" lon="1.96378">
        <ele>143.5</ele>
        <time>2025-04-03T08:35:22Z</time>
      </trkpt>
      <trkpt lat="48.50441" lon="1.96392">
        <ele>142.9</ele>
        <time>2025-04-03T08:35:29Z</time>
      </trkpt>
      <trkpt lat="48.50445" lon="1.96405">
        <ele>143</ele>
        <time>2025-04-03T08:35:36Z</time>
      </trkpt>
      <trkpt lat="48.50447" lon="1.96419">
        <ele>143.1</ele>
        <time>2025-04-03T08:35:43Z</time>
      </trkpt>
      <trkpt lat="48.50451" lon="1.96431">
        <ele>142.9</ele>
        <time>2025-04-03T08:35:50Z</time>
      </trkpt>
      <trkpt lat="48.50453" lon="1.96445">
        <ele>142.6</ele>
        <time>2025-04-03T08:35:57Z</time>
      </trkpt>
      <trkpt lat="48.50457" lon="1.96459">
        <ele>142.4</ele>
        <time>2025-04-03T08:36:04Z</time>
      </trkpt>
      <trkpt lat="48.50462" lon="1.96472">
        <ele>142.3</ele>
        <time>2025-04-03T08:36:12Z</time>
      </trkpt>
      <trkpt lat="48.50466" lon="1.96485">
        <ele>142.2</ele>
        <time>2025-04-03T08:36:19Z</time>
      </trkpt>
      <trkpt lat="48.50471" lon="1.96497">
        <ele>142</ele>
        <time>2025-04-03T08:36:26Z</time>
      </trkpt>
      <trkpt lat="48.50476" lon="1.96509">
        <ele>141.9</ele>
        <time>2025-04-03T08:36:33Z</time>
      </trkpt>
      <trkpt lat="48.50481" lon="1.96522">
        <ele>141.9</ele>
        <time>2025-04-03T08:36:40Z</time>
      </trkpt>
      <trkpt lat="48.50487" lon="1.96533">
        <ele>141.9</ele>
        <time>2025-04-03T08:36:47Z</time>
      </trkpt>
      <trkpt lat="48.50491" lon="1.96546">
        <ele>141.9</ele>
        <time>2025-04-03T08:36:54Z</time>
      </trkpt>
      <trkpt lat="48.50497" lon="1.96558">
        <ele>141.8</ele>
        <time>2025-04-03T08:37:01Z</time>
      </trkpt>
      <trkpt lat="48.50503" lon="1.9657">
        <ele>141.7</ele>
        <time>2025-04-03T08:37:08Z</time>
      </trkpt>
      <trkpt lat="48.50509" lon="1.96581">
        <ele>142</ele>
        <time>2025-04-03T08:37:16Z</time>
      </trkpt>
      <trkpt lat="48.50517" lon="1.96587">
        <ele>142.7</ele>
        <time>2025-04-03T08:38:10Z</time>
      </trkpt>
      <trkpt lat="48.50525" lon="1.96594">
        <ele>143.3</ele>
        <time>2025-04-03T08:38:19Z</time>
      </trkpt>
      <trkpt lat="48.50531" lon="1.96607">
        <ele>143.4</ele>
        <time>2025-04-03T08:38:27Z</time>
      </trkpt>
      <trkpt lat="48.50536" lon="1.96618">
        <ele>143.4</ele>
        <time>2025-04-03T08:38:34Z</time>
      </trkpt>
      <trkpt lat="48.50541" lon="1.9663">
        <ele>143</ele>
        <time>2025-04-03T08:38:41Z</time>
      </trkpt>
      <trkpt lat="48.50546" lon="1.96643">
        <ele>142.7</ele>
        <time>2025-04-03T08:38:48Z</time>
      </trkpt>
      <trkpt lat="48.50553" lon="1.96655">
        <ele>142.6</ele>
        <time>2025-04-03T08:38:55Z</time>
      </trkpt>
      <trkpt lat="48.50559" lon="1.96666">
        <ele>142.4</ele>
        <time>2025-04-03T08:39:02Z</time>
      </trkpt>
      <trkpt lat="48.50565" lon="1.96677">
        <ele>142.5</ele>
        <time>2025-04-03T08:39:09Z</time>
      </trkpt>
      <trkpt lat="48.50573" lon="1.96686">
        <ele>142.7</ele>
        <time>2025-04-03T08:39:16Z</time>
      </trkpt>
      <trkpt lat="48.50581" lon="1.96695">
        <ele>142.8</ele>
        <time>2025-04-03T08:39:24Z</time>
      </trkpt>
      <trkpt lat="48.50589" lon="1.96704">
        <ele>142.8</ele>
        <time>2025-04-03T08:39:31Z</time>
      </trkpt>
      <trkpt lat="48.50597" lon="1.96712">
        <ele>142.9</ele>
        <time>2025-04-03T08:39:38Z</time>
      </trkpt>
      <trkpt lat="48.50605" lon="1.9672">
        <ele>142.8</ele>
        <time>2025-04-03T08:39:44Z</time>
      </trkpt>
      <trkpt lat="48.50612" lon="1.96729">
        <ele>142.4</ele>
        <time>2025-04-03T08:39:50Z</time>
      </trkpt>
      <trkpt lat="48.5062" lon="1.96738">
        <ele>142.1</ele>
        <time>2025-04-03T08:39:57Z</time>
      </trkpt>
      <trkpt lat="48.50627" lon="1.96747">
        <ele>141.6</ele>
        <time>2025-04-03T08:40:06Z</time>
      </trkpt>
      <trkpt lat="48.50636" lon="1.96758">
        <ele>140.9</ele>
        <time>2025-04-03T08:40:12Z</time>
      </trkpt>
      <trkpt lat="48.50644" lon="1.96768">
        <ele>140.5</ele>
        <time>2025-04-03T08:40:19Z</time>
      </trkpt>
      <trkpt lat="48.50651" lon="1.96779">
        <ele>139.7</ele>
        <time>2025-04-03T08:40:25Z</time>
      </trkpt>
      <trkpt lat="48.50657" lon="1.96792">
        <ele>139</ele>
        <time>2025-04-03T08:40:33Z</time>
      </trkpt>
      <trkpt lat="48.50663" lon="1.96803">
        <ele>138.1</ele>
        <time>2025-04-03T08:40:40Z</time>
      </trkpt>
      <trkpt lat="48.50669" lon="1.96815">
        <ele>137.9</ele>
        <time>2025-04-03T08:40:48Z</time>
      </trkpt>
      <trkpt lat="48.50675" lon="1.96825">
        <ele>138</ele>
        <time>2025-04-03T08:40:55Z</time>
      </trkpt>
      <trkpt lat="48.50683" lon="1.96835">
        <ele>138</ele>
        <time>2025-04-03T08:41:03Z</time>
      </trkpt>
      <trkpt lat="48.5069" lon="1.96847">
        <ele>137.8</ele>
        <time>2025-04-03T08:41:11Z</time>
      </trkpt>
      <trkpt lat="48.50697" lon="1.96856">
        <ele>137.6</ele>
        <time>2025-04-03T08:41:18Z</time>
      </trkpt>
      <trkpt lat="48.50703" lon="1.96868">
        <ele>137.6</ele>
        <time>2025-04-03T08:41:25Z</time>
      </trkpt>
      <trkpt lat="48.50709" lon="1.96879">
        <ele>137.6</ele>
        <time>2025-04-03T08:41:33Z</time>
      </trkpt>
      <trkpt lat="48.50716" lon="1.96891">
        <ele>137.4</ele>
        <time>2025-04-03T08:41:40Z</time>
      </trkpt>
      <trkpt lat="48.50722" lon="1.96902">
        <ele>137</ele>
        <time>2025-04-03T08:41:47Z</time>
      </trkpt>
      <trkpt lat="48.50728" lon="1.96913">
        <ele>136.9</ele>
        <time>2025-04-03T08:41:53Z</time>
      </trkpt>
      <trkpt lat="48.50736" lon="1.9692">
        <ele>137.3</ele>
        <time>2025-04-03T08:41:59Z</time>
      </trkpt>
      <trkpt lat="48.50744" lon="1.96931">
        <ele>137.5</ele>
        <time>2025-04-03T08:42:06Z</time>
      </trkpt>
      <trkpt lat="48.50751" lon="1.9694">
        <ele>137.4</ele>
        <time>2025-04-03T08:42:12Z</time>
      </trkpt>
      <trkpt lat="48.50758" lon="1.96949">
        <ele>137.6</ele>
        <time>2025-04-03T08:42:19Z</time>
      </trkpt>
      <trkpt lat="48.50767" lon="1.96954">
        <ele>138.1</ele>
        <time>2025-04-03T08:42:28Z</time>
      </trkpt>
      <trkpt lat="48.50775" lon="1.96963">
        <ele>137.9</ele>
        <time>2025-04-03T08:42:35Z</time>
      </trkpt>
      <trkpt lat="48.50782" lon="1.96973">
        <ele>137.4</ele>
        <time>2025-04-03T08:42:41Z</time>
      </trkpt>
      <trkpt lat="48.50789" lon="1.96983">
        <ele>137.5</ele>
        <time>2025-04-03T08:42:48Z</time>
      </trkpt>
      <trkpt lat="48.50794" lon="1.96996">
        <ele>137.5</ele>
        <time>2025-04-03T08:42:55Z</time>
      </trkpt>
      <trkpt lat="48.50795" lon="1.9701">
        <ele>137</ele>
        <time>2025-04-03T08:43:02Z</time>
      </trkpt>
      <trkpt lat="48.50796" lon="1.97025">
        <ele>136.2</ele>
        <time>2025-04-03T08:43:09Z</time>
      </trkpt>
      <trkpt lat="48.50802" lon="1.97037">
        <ele>136.1</ele>
        <time>2025-04-03T08:43:17Z</time>
      </trkpt>
      <trkpt lat="48.50808" lon="1.97048">
        <ele>135.7</ele>
        <time>2025-04-03T08:43:25Z</time>
      </trkpt>
      <trkpt lat="48.50813" lon="1.97059">
        <ele>135</ele>
        <time>2025-04-03T08:43:32Z</time>
      </trkpt>
      <trkpt lat="48.5082" lon="1.97069">
        <ele>134.3</ele>
        <time>2025-04-03T08:43:39Z</time>
      </trkpt>
      <trkpt lat="48.5083" lon="1.97071">
        <ele>134.3</ele>
        <time>2025-04-03T08:43:47Z</time>
      </trkpt>
      <trkpt lat="48.50839" lon="1.97079">
        <ele>133.8</ele>
        <time>2025-04-03T08:43:55Z</time>
      </trkpt>
      <trkpt lat="48.50845" lon="1.97091">
        <ele>133.6</ele>
        <time>2025-04-03T08:44:01Z</time>
      </trkpt>
      <trkpt lat="48.50851" lon="1.97102">
        <ele>133.6</ele>
        <time>2025-04-03T08:44:07Z</time>
      </trkpt>
      <trkpt lat="48.50852" lon="1.97117">
        <ele>133.2</ele>
        <time>2025-04-03T08:44:13Z</time>
      </trkpt>
      <trkpt lat="48.50851" lon="1.97131">
        <ele>132.8</ele>
        <time>2025-04-03T08:44:19Z</time>
      </trkpt>
      <trkpt lat="48.50851" lon="1.97146">
        <ele>132.5</ele>
        <time>2025-04-03T08:44:26Z</time>
      </trkpt>
      <trkpt lat="48.50855" lon="1.9716">
        <ele>132.2</ele>
        <time>2025-04-03T08:44:34Z</time>
      </trkpt>
      <trkpt lat="48.50859" lon="1.97173">
        <ele>131.8</ele>
        <time>2025-04-03T08:44:41Z</time>
      </trkpt>
      <trkpt lat="48.50864" lon="1.97187">
        <ele>131.5</ele>
        <time>2025-04-03T08:44:48Z</time>
      </trkpt>
      <trkpt lat="48.50868" lon="1.972">
        <ele>131.3</ele>
        <time>2025-04-03T08:44:55Z</time>
      </trkpt>
      <trkpt lat="48.50872" lon="1.97214">
        <ele>131.3</ele>
        <time>2025-04-03T08:45:02Z</time>
      </trkpt>
      <trkpt lat="48.50876" lon="1.97228">
        <ele>131.5</ele>
        <time>2025-04-03T08:45:08Z</time>
      </trkpt>
      <trkpt lat="48.50879" lon="1.97241">
        <ele>131.5</ele>
        <time>2025-04-03T08:45:14Z</time>
      </trkpt>
      <trkpt lat="48.50881" lon="1.97256">
        <ele>131.4</ele>
        <time>2025-04-03T08:45:21Z</time>
      </trkpt>
      <trkpt lat="48.50883" lon="1.9727">
        <ele>131.6</ele>
        <time>2025-04-03T08:45:27Z</time>
      </trkpt>
      <trkpt lat="48.50886" lon="1.97283">
        <ele>131.6</ele>
        <time>2025-04-03T08:45:33Z</time>
      </trkpt>
      <trkpt lat="48.5089" lon="1.97296">
        <ele>131.5</ele>
        <time>2025-04-03T08:45:40Z</time>
      </trkpt>
      <trkpt lat="48.50894" lon="1.97311">
        <ele>131.6</ele>
        <time>2025-04-03T08:45:47Z</time>
      </trkpt>
      <trkpt lat="48.50898" lon="1.97324">
        <ele>131.7</ele>
        <time>2025-04-03T08:45:54Z</time>
      </trkpt>
      <trkpt lat="48.50899" lon="1.97339">
        <ele>131.4</ele>
        <time>2025-04-03T08:46:00Z</time>
      </trkpt>
      <trkpt lat="48.50904" lon="1.97352">
        <ele>131.8</ele>
        <time>2025-04-03T08:46:07Z</time>
      </trkpt>
      <trkpt lat="48.50909" lon="1.97364">
        <ele>132</ele>
        <time>2025-04-03T08:46:15Z</time>
      </trkpt>
      <trkpt lat="48.50912" lon="1.97378">
        <ele>131.4</ele>
        <time>2025-04-03T08:46:21Z</time>
      </trkpt>
      <trkpt lat="48.50916" lon="1.97392">
        <ele>130.8</ele>
        <time>2025-04-03T08:46:28Z</time>
      </trkpt>
      <trkpt lat="48.50923" lon="1.97403">
        <ele>130.5</ele>
        <time>2025-04-03T08:46:34Z</time>
      </trkpt>
      <trkpt lat="48.50927" lon="1.97415">
        <ele>129.9</ele>
        <time>2025-04-03T08:46:40Z</time>
      </trkpt>
      <trkpt lat="48.50932" lon="1.97427">
        <ele>129.7</ele>
        <time>2025-04-03T08:46:47Z</time>
      </trkpt>
      <trkpt lat="48.50937" lon="1.97439">
        <ele>129.3</ele>
        <time>2025-04-03T08:46:54Z</time>
      </trkpt>
      <trkpt lat="48.50943" lon="1.9745">
        <ele>128.8</ele>
        <time>2025-04-03T08:47:00Z</time>
      </trkpt>
      <trkpt lat="48.50949" lon="1.97462">
        <ele>128.8</ele>
        <time>2025-04-03T08:47:06Z</time>
      </trkpt>
      <trkpt lat="48.50955" lon="1.97474">
        <ele>129</ele>
        <time>2025-04-03T08:47:13Z</time>
      </trkpt>
      <trkpt lat="48.50961" lon="1.97485">
        <ele>129.2</ele>
        <time>2025-04-03T08:47:20Z</time>
      </trkpt>
      <trkpt lat="48.50966" lon="1.97496">
        <ele>129</ele>
        <time>2025-04-03T08:47:27Z</time>
      </trkpt>
      <trkpt lat="48.50973" lon="1.97508">
        <ele>128.5</ele>
        <time>2025-04-03T08:47:34Z</time>
      </trkpt>
      <trkpt lat="48.50977" lon="1.9752">
        <ele>128.3</ele>
        <time>2025-04-03T08:47:40Z</time>
      </trkpt>
      <trkpt lat="48.50982" lon="1.97533">
        <ele>128.1</ele>
        <time>2025-04-03T08:47:47Z</time>
      </trkpt>
      <trkpt lat="48.50987" lon="1.97546">
        <ele>127.8</ele>
        <time>2025-04-03T08:47:54Z</time>
      </trkpt>
      <trkpt lat="48.50993" lon="1.97557">
        <ele>127.4</ele>
        <time>2025-04-03T08:48:00Z</time>
      </trkpt>
      <trkpt lat="48.51" lon="1.97569">
        <ele>127</ele>
        <time>2025-04-03T08:48:07Z</time>
      </trkpt>
      <trkpt lat="48.51004" lon="1.97581">
        <ele>126.6</ele>
        <time>2025-04-03T08:48:13Z</time>
      </trkpt>
      <trkpt lat="48.51009" lon="1.97593">
        <ele>126.5</ele>
        <time>2025-04-03T08:48:19Z</time>
      </trkpt>
      <trkpt lat="48.51014" lon="1.97605">
        <ele>126.3</ele>
        <time>2025-04-03T08:48:26Z</time>
      </trkpt>
      <trkpt lat="48.5102" lon="1.97618">
        <ele>126.1</ele>
        <time>2025-04-03T08:48:33Z</time>
      </trkpt>
      <trkpt lat="48.51027" lon="1.97629">
        <ele>125.7</ele>
        <time>2025-04-03T08:48:40Z</time>
      </trkpt>
      <trkpt lat="48.51031" lon="1.97641">
        <ele>125.3</ele>
        <time>2025-04-03T08:48:46Z</time>
      </trkpt>
      <trkpt lat="48.51037" lon="1.97652">
        <ele>125.4</ele>
        <time>2025-04-03T08:48:52Z</time>
      </trkpt>
      <trkpt lat="48.51043" lon="1.97663">
        <ele>125.3</ele>
        <time>2025-04-03T08:48:58Z</time>
      </trkpt>
      <trkpt lat="48.51049" lon="1.97674">
        <ele>125.2</ele>
        <time>2025-04-03T08:49:04Z</time>
      </trkpt>
      <trkpt lat="48.51055" lon="1.97685">
        <ele>124.6</ele>
        <time>2025-04-03T08:49:10Z</time>
      </trkpt>
      <trkpt lat="48.5106" lon="1.97698">
        <ele>124.3</ele>
        <time>2025-04-03T08:49:17Z</time>
      </trkpt>
      <trkpt lat="48.51066" lon="1.97709">
        <ele>124.4</ele>
        <time>2025-04-03T08:49:23Z</time>
      </trkpt>
      <trkpt lat="48.51071" lon="1.97722">
        <ele>124.1</ele>
        <time>2025-04-03T08:49:29Z</time>
      </trkpt>
      <trkpt lat="48.51076" lon="1.97734">
        <ele>124.2</ele>
        <time>2025-04-03T08:49:36Z</time>
      </trkpt>
      <trkpt lat="48.51083" lon="1.97746">
        <ele>124.1</ele>
        <time>2025-04-03T08:49:43Z</time>
      </trkpt>
      <trkpt lat="48.51089" lon="1.97757">
        <ele>124.3</ele>
        <time>2025-04-03T08:49:49Z</time>
      </trkpt>
      <trkpt lat="48.51094" lon="1.97768">
        <ele>124.2</ele>
        <time>2025-04-03T08:49:55Z</time>
      </trkpt>
      <trkpt lat="48.51099" lon="1.97781">
        <ele>124.1</ele>
        <time>2025-04-03T08:50:02Z</time>
      </trkpt>
      <trkpt lat="48.51105" lon="1.97794">
        <ele>124.1</ele>
        <time>2025-04-03T08:50:09Z</time>
      </trkpt>
      <trkpt lat="48.51111" lon="1.97806">
        <ele>124</ele>
        <time>2025-04-03T08:50:16Z</time>
      </trkpt>
      <trkpt lat="48.51117" lon="1.97818">
        <ele>123.9</ele>
        <time>2025-04-03T08:50:23Z</time>
      </trkpt>
      <trkpt lat="48.51121" lon="1.97831">
        <ele>123.5</ele>
        <time>2025-04-03T08:50:29Z</time>
      </trkpt>
      <trkpt lat="48.51127" lon="1.97841">
        <ele>123.4</ele>
        <time>2025-04-03T08:50:35Z</time>
      </trkpt>
      <trkpt lat="48.51134" lon="1.9785">
        <ele>123.3</ele>
        <time>2025-04-03T08:50:41Z</time>
      </trkpt>
      <trkpt lat="48.5114" lon="1.97861">
        <ele>123</ele>
        <time>2025-04-03T08:50:47Z</time>
      </trkpt>
      <trkpt lat="48.51146" lon="1.97872">
        <ele>123.2</ele>
        <time>2025-04-03T08:50:54Z</time>
      </trkpt>
      <trkpt lat="48.51152" lon="1.97883">
        <ele>123.1</ele>
        <time>2025-04-03T08:51:00Z</time>
      </trkpt>
      <trkpt lat="48.51158" lon="1.97894">
        <ele>123.1</ele>
        <time>2025-04-03T08:51:07Z</time>
      </trkpt>
      <trkpt lat="48.51164" lon="1.97906">
        <ele>123</ele>
        <time>2025-04-03T08:51:14Z</time>
      </trkpt>
      <trkpt lat="48.51171" lon="1.97918">
        <ele>123</ele>
        <time>2025-04-03T08:51:21Z</time>
      </trkpt>
      <trkpt lat="48.51176" lon="1.97932">
        <ele>123.2</ele>
        <time>2025-04-03T08:51:27Z</time>
      </trkpt>
      <trkpt lat="48.51181" lon="1.97943">
        <ele>123</ele>
        <time>2025-04-03T08:51:33Z</time>
      </trkpt>
      <trkpt lat="48.51187" lon="1.97954">
        <ele>123.1</ele>
        <time>2025-04-03T08:51:39Z</time>
      </trkpt>
      <trkpt lat="48.51194" lon="1.97965">
        <ele>122.8</ele>
        <time>2025-04-03T08:51:46Z</time>
      </trkpt>
      <trkpt lat="48.512" lon="1.97977">
        <ele>122.9</ele>
        <time>2025-04-03T08:51:52Z</time>
      </trkpt>
      <trkpt lat="48.51204" lon="1.97989">
        <ele>123.1</ele>
        <time>2025-04-03T08:51:58Z</time>
      </trkpt>
      <trkpt lat="48.51208" lon="1.98002">
        <ele>123</ele>
        <time>2025-04-03T08:52:04Z</time>
      </trkpt>
      <trkpt lat="48.51213" lon="1.98014">
        <ele>122.3</ele>
        <time>2025-04-03T08:52:10Z</time>
      </trkpt>
      <trkpt lat="48.51218" lon="1.98026">
        <ele>121.5</ele>
        <time>2025-04-03T08:52:16Z</time>
      </trkpt>
      <trkpt lat="48.51224" lon="1.98037">
        <ele>121</ele>
        <time>2025-04-03T08:52:22Z</time>
      </trkpt>
      <trkpt lat="48.51229" lon="1.98049">
        <ele>120.8</ele>
        <time>2025-04-03T08:52:29Z</time>
      </trkpt>
      <trkpt lat="48.51235" lon="1.9806">
        <ele>120.5</ele>
        <time>2025-04-03T08:52:35Z</time>
      </trkpt>
      <trkpt lat="48.51241" lon="1.98073">
        <ele>120.1</ele>
        <time>2025-04-03T08:52:42Z</time>
      </trkpt>
      <trkpt lat="48.51247" lon="1.98084">
        <ele>120</ele>
        <time>2025-04-03T08:52:48Z</time>
      </trkpt>
      <trkpt lat="48.51252" lon="1.98096">
        <ele>119.6</ele>
        <time>2025-04-03T08:52:55Z</time>
      </trkpt>
      <trkpt lat="48.51257" lon="1.98108">
        <ele>119.4</ele>
        <time>2025-04-03T08:53:01Z</time>
      </trkpt>
      <trkpt lat="48.51264" lon="1.98119">
        <ele>119.4</ele>
        <time>2025-04-03T08:53:07Z</time>
      </trkpt>
      <trkpt lat="48.51268" lon="1.98131">
        <ele>119.2</ele>
        <time>2025-04-03T08:53:13Z</time>
      </trkpt>
      <trkpt lat="48.51274" lon="1.98142">
        <ele>119.2</ele>
        <time>2025-04-03T08:53:20Z</time>
      </trkpt>
      <trkpt lat="48.5128" lon="1.98153">
        <ele>120</ele>
        <time>2025-04-03T08:53:27Z</time>
      </trkpt>
      <trkpt lat="48.51286" lon="1.98166">
        <ele>120.7</ele>
        <time>2025-04-03T08:53:34Z</time>
      </trkpt>
      <trkpt lat="48.5129" lon="1.9818">
        <ele>122.3</ele>
        <time>2025-04-03T08:53:40Z</time>
      </trkpt>
      <trkpt lat="48.51295" lon="1.98191">
        <ele>123.1</ele>
        <time>2025-04-03T08:53:46Z</time>
      </trkpt>
      <trkpt lat="48.513" lon="1.98203">
        <ele>124.5</ele>
        <time>2025-04-03T08:53:52Z</time>
      </trkpt>
      <trkpt lat="48.51305" lon="1.98215">
        <ele>125.8</ele>
        <time>2025-04-03T08:53:59Z</time>
      </trkpt>
      <trkpt lat="48.51311" lon="1.98227">
        <ele>126.5</ele>
        <time>2025-04-03T08:54:06Z</time>
      </trkpt>
      <trkpt lat="48.51316" lon="1.98238">
        <ele>127.1</ele>
        <time>2025-04-03T08:54:13Z</time>
      </trkpt>
      <trkpt lat="48.5132" lon="1.98251">
        <ele>127.9</ele>
        <time>2025-04-03T08:54:20Z</time>
      </trkpt>
      <trkpt lat="48.51326" lon="1.98262">
        <ele>127.7</ele>
        <time>2025-04-03T08:54:27Z</time>
      </trkpt>
      <trkpt lat="48.51332" lon="1.98273">
        <ele>127.6</ele>
        <time>2025-04-03T08:54:34Z</time>
      </trkpt>
      <trkpt lat="48.51338" lon="1.98285">
        <ele>127.5</ele>
        <time>2025-04-03T08:54:42Z</time>
      </trkpt>
      <trkpt lat="48.51342" lon="1.98297">
        <ele>127.3</ele>
        <time>2025-04-03T08:54:49Z</time>
      </trkpt>
      <trkpt lat="48.51347" lon="1.9831">
        <ele>127.3</ele>
        <time>2025-04-03T08:54:57Z</time>
      </trkpt>
      <trkpt lat="48.51353" lon="1.98321">
        <ele>126.6</ele>
        <time>2025-04-03T08:55:05Z</time>
      </trkpt>
      <trkpt lat="48.5136" lon="1.98333">
        <ele>126.2</ele>
        <time>2025-04-03T08:55:12Z</time>
      </trkpt>
      <trkpt lat="48.51365" lon="1.98344">
        <ele>126.3</ele>
        <time>2025-04-03T08:55:18Z</time>
      </trkpt>
      <trkpt lat="48.5137" lon="1.98355">
        <ele>126.2</ele>
        <time>2025-04-03T08:55:24Z</time>
      </trkpt>
      <trkpt lat="48.51376" lon="1.98368">
        <ele>125.9</ele>
        <time>2025-04-03T08:55:31Z</time>
      </trkpt>
      <trkpt lat="48.51382" lon="1.9838">
        <ele>125.5</ele>
        <time>2025-04-03T08:55:38Z</time>
      </trkpt>
      <trkpt lat="48.51387" lon="1.98392">
        <ele>125.3</ele>
        <time>2025-04-03T08:55:44Z</time>
      </trkpt>
      <trkpt lat="48.51392" lon="1.98404">
        <ele>125.2</ele>
        <time>2025-04-03T08:55:50Z</time>
      </trkpt>
      <trkpt lat="48.51397" lon="1.98416">
        <ele>125.1</ele>
        <time>2025-04-03T08:55:56Z</time>
      </trkpt>
      <trkpt lat="48.51403" lon="1.98427">
        <ele>124.6</ele>
        <time>2025-04-03T08:56:02Z</time>
      </trkpt>
      <trkpt lat="48.5141" lon="1.98437">
        <ele>124.3</ele>
        <time>2025-04-03T08:56:08Z</time>
      </trkpt>
      <trkpt lat="48.51417" lon="1.98446">
        <ele>123.9</ele>
        <time>2025-04-03T08:56:14Z</time>
      </trkpt>
      <trkpt lat="48.51421" lon="1.98459">
        <ele>123.2</ele>
        <time>2025-04-03T08:56:20Z</time>
      </trkpt>
      <trkpt lat="48.51426" lon="1.98471">
        <ele>122.7</ele>
        <time>2025-04-03T08:56:26Z</time>
      </trkpt>
      <trkpt lat="48.51431" lon="1.98484">
        <ele>122.5</ele>
        <time>2025-04-03T08:56:33Z</time>
      </trkpt>
      <trkpt lat="48.51436" lon="1.98497">
        <ele>122.3</ele>
        <time>2025-04-03T08:56:40Z</time>
      </trkpt>
      <trkpt lat="48.51441" lon="1.98509">
        <ele>121.8</ele>
        <time>2025-04-03T08:56:47Z</time>
      </trkpt>
      <trkpt lat="48.51447" lon="1.98521">
        <ele>121.1</ele>
        <time>2025-04-03T08:56:54Z</time>
      </trkpt>
      <trkpt lat="48.51456" lon="1.9852">
        <ele>120.7</ele>
        <time>2025-04-03T08:59:08Z</time>
      </trkpt>
      <trkpt lat="48.51464" lon="1.98512">
        <ele>120.5</ele>
        <time>2025-04-03T08:59:16Z</time>
      </trkpt>
      <trkpt lat="48.51472" lon="1.98503">
        <ele>120</ele>
        <time>2025-04-03T08:59:23Z</time>
      </trkpt>
      <trkpt lat="48.51479" lon="1.98496">
        <ele>119.3</ele>
        <time>2025-04-03T08:59:29Z</time>
      </trkpt>
      <trkpt lat="48.51488" lon="1.9849">
        <ele>118.3</ele>
        <time>2025-04-03T08:59:36Z</time>
      </trkpt>
      <trkpt lat="48.51495" lon="1.98482">
        <ele>117.5</ele>
        <time>2025-04-03T08:59:43Z</time>
      </trkpt>
      <trkpt lat="48.51504" lon="1.98474">
        <ele>116.7</ele>
        <time>2025-04-03T08:59:50Z</time>
      </trkpt>
      <trkpt lat="48.51513" lon="1.98469">
        <ele>116.1</ele>
        <time>2025-04-03T08:59:57Z</time>
      </trkpt>
      <trkpt lat="48.51521" lon="1.9846">
        <ele>115.5</ele>
        <time>2025-04-03T09:00:04Z</time>
      </trkpt>
      <trkpt lat="48.5153" lon="1.98454">
        <ele>115.1</ele>
        <time>2025-04-03T09:00:11Z</time>
      </trkpt>
      <trkpt lat="48.51539" lon="1.98449">
        <ele>115.4</ele>
        <time>2025-04-03T09:00:17Z</time>
      </trkpt>
      <trkpt lat="48.51547" lon="1.9844">
        <ele>116.1</ele>
        <time>2025-04-03T09:00:24Z</time>
      </trkpt>
      <trkpt lat="48.51557" lon="1.98434">
        <ele>117.1</ele>
        <time>2025-04-03T09:00:31Z</time>
      </trkpt>
      <trkpt lat="48.51566" lon="1.98427">
        <ele>117.7</ele>
        <time>2025-04-03T09:00:38Z</time>
      </trkpt>
      <trkpt lat="48.51574" lon="1.98419">
        <ele>118.1</ele>
        <time>2025-04-03T09:00:44Z</time>
      </trkpt>
      <trkpt lat="48.51582" lon="1.98413">
        <ele>118.3</ele>
        <time>2025-04-03T09:00:50Z</time>
      </trkpt>
      <trkpt lat="48.5159" lon="1.98406">
        <ele>117.9</ele>
        <time>2025-04-03T09:00:56Z</time>
      </trkpt>
      <trkpt lat="48.51598" lon="1.98399">
        <ele>117.4</ele>
        <time>2025-04-03T09:01:02Z</time>
      </trkpt>
      <trkpt lat="48.51606" lon="1.9839">
        <ele>116.7</ele>
        <time>2025-04-03T09:01:08Z</time>
      </trkpt>
      <trkpt lat="48.51615" lon="1.98384">
        <ele>116.3</ele>
        <time>2025-04-03T09:01:15Z</time>
      </trkpt>
      <trkpt lat="48.51622" lon="1.98376">
        <ele>116.7</ele>
        <time>2025-04-03T09:01:22Z</time>
      </trkpt>
      <trkpt lat="48.5163" lon="1.98367">
        <ele>116.9</ele>
        <time>2025-04-03T09:01:30Z</time>
      </trkpt>
      <trkpt lat="48.51639" lon="1.98359">
        <ele>117</ele>
        <time>2025-04-03T09:01:37Z</time>
      </trkpt>
      <trkpt lat="48.51647" lon="1.98353">
        <ele>118.4</ele>
        <time>2025-04-03T09:01:44Z</time>
      </trkpt>
      <trkpt lat="48.51655" lon="1.98346">
        <ele>119.5</ele>
        <time>2025-04-03T09:01:53Z</time>
      </trkpt>
      <trkpt lat="48.51663" lon="1.98338">
        <ele>120.6</ele>
        <time>2025-04-03T09:02:01Z</time>
      </trkpt>
      <trkpt lat="48.51671" lon="1.98333">
        <ele>121.7</ele>
        <time>2025-04-03T09:02:09Z</time>
      </trkpt>
      <trkpt lat="48.51679" lon="1.98325">
        <ele>122.5</ele>
        <time>2025-04-03T09:02:17Z</time>
      </trkpt>
      <trkpt lat="48.51686" lon="1.98317">
        <ele>123.2</ele>
        <time>2025-04-03T09:02:24Z</time>
      </trkpt>
      <trkpt lat="48.51695" lon="1.9831">
        <ele>124.3</ele>
        <time>2025-04-03T09:02:32Z</time>
      </trkpt>
      <trkpt lat="48.51704" lon="1.98304">
        <ele>125.7</ele>
        <time>2025-04-03T09:02:40Z</time>
      </trkpt>
      <trkpt lat="48.51713" lon="1.98297">
        <ele>126.6</ele>
        <time>2025-04-03T09:02:48Z</time>
      </trkpt>
      <trkpt lat="48.51721" lon="1.9829">
        <ele>127.2</ele>
        <time>2025-04-03T09:02:56Z</time>
      </trkpt>
      <trkpt lat="48.5173" lon="1.98282">
        <ele>127.9</ele>
        <time>2025-04-03T09:03:03Z</time>
      </trkpt>
      <trkpt lat="48.51738" lon="1.98275">
        <ele>128.8</ele>
        <time>2025-04-03T09:03:10Z</time>
      </trkpt>
      <trkpt lat="48.51747" lon="1.98268">
        <ele>129.8</ele>
        <time>2025-04-03T09:03:17Z</time>
      </trkpt>
      <trkpt lat="48.51755" lon="1.98261">
        <ele>130.7</ele>
        <time>2025-04-03T09:03:24Z</time>
      </trkpt>
      <trkpt lat="48.51764" lon="1.98255">
        <ele>131.5</ele>
        <time>2025-04-03T09:03:32Z</time>
      </trkpt>
      <trkpt lat="48.51773" lon="1.98248">
        <ele>132.1</ele>
        <time>2025-04-03T09:03:40Z</time>
      </trkpt>
      <trkpt lat="48.51781" lon="1.98241">
        <ele>132.9</ele>
        <time>2025-04-03T09:03:48Z</time>
      </trkpt>
      <trkpt lat="48.51789" lon="1.98233">
        <ele>133.7</ele>
        <time>2025-04-03T09:03:55Z</time>
      </trkpt>
      <trkpt lat="48.51797" lon="1.98225">
        <ele>134</ele>
        <time>2025-04-03T09:04:03Z</time>
      </trkpt>
      <trkpt lat="48.51805" lon="1.98218">
        <ele>134.6</ele>
        <time>2025-04-03T09:04:11Z</time>
      </trkpt>
      <trkpt lat="48.51814" lon="1.98213">
        <ele>136.2</ele>
        <time>2025-04-03T09:04:18Z</time>
      </trkpt>
      <trkpt lat="48.51823" lon="1.98208">
        <ele>137.8</ele>
        <time>2025-04-03T09:04:26Z</time>
      </trkpt>
      <trkpt lat="48.51831" lon="1.98202">
        <ele>139.1</ele>
        <time>2025-04-03T09:04:34Z</time>
      </trkpt>
      <trkpt lat="48.5184" lon="1.98196">
        <ele>140.7</ele>
        <time>2025-04-03T09:04:42Z</time>
      </trkpt>
      <trkpt lat="48.51849" lon="1.98192">
        <ele>142.9</ele>
        <time>2025-04-03T09:04:51Z</time>
      </trkpt>
      <trkpt lat="48.51858" lon="1.98187">
        <ele>145.2</ele>
        <time>2025-04-03T09:05:00Z</time>
      </trkpt>
      <trkpt lat="48.51866" lon="1.9818">
        <ele>146.9</ele>
        <time>2025-04-03T09:05:08Z</time>
      </trkpt>
      <trkpt lat="48.51875" lon="1.98173">
        <ele>148.4</ele>
        <time>2025-04-03T09:05:19Z</time>
      </trkpt>
      <trkpt lat="48.51883" lon="1.9817">
        <ele>150</ele>
        <time>2025-04-03T09:05:29Z</time>
      </trkpt>
      <trkpt lat="48.51892" lon="1.98163">
        <ele>151.3</ele>
        <time>2025-04-03T09:05:41Z</time>
      </trkpt>
      <trkpt lat="48.519" lon="1.98158">
        <ele>152.2</ele>
        <time>2025-04-03T09:05:51Z</time>
      </trkpt>
      <trkpt lat="48.51909" lon="1.98151">
        <ele>153.2</ele>
        <time>2025-04-03T09:06:00Z</time>
      </trkpt>
      <trkpt lat="48.51917" lon="1.98143">
        <ele>154</ele>
        <time>2025-04-03T09:06:11Z</time>
      </trkpt>
      <trkpt lat="48.51921" lon="1.9813">
        <ele>154.1</ele>
        <time>2025-04-03T09:07:51Z</time>
      </trkpt>
      <trkpt lat="48.51922" lon="1.98116">
        <ele>154.2</ele>
        <time>2025-04-03T09:08:02Z</time>
      </trkpt>
      <trkpt lat="48.51924" lon="1.98101">
        <ele>154.6</ele>
        <time>2025-04-03T09:08:10Z</time>
      </trkpt>
      <trkpt lat="48.51925" lon="1.98087">
        <ele>155.2</ele>
        <time>2025-04-03T09:08:18Z</time>
      </trkpt>
      <trkpt lat="48.51927" lon="1.98072">
        <ele>155.2</ele>
        <time>2025-04-03T09:08:25Z</time>
      </trkpt>
      <trkpt lat="48.51927" lon="1.98058">
        <ele>155</ele>
        <time>2025-04-03T09:08:32Z</time>
      </trkpt>
      <trkpt lat="48.51926" lon="1.98043">
        <ele>155</ele>
        <time>2025-04-03T09:08:39Z</time>
      </trkpt>
      <trkpt lat="48.51923" lon="1.98028">
        <ele>155</ele>
        <time>2025-04-03T09:08:46Z</time>
      </trkpt>
      <trkpt lat="48.51921" lon="1.98014">
        <ele>155</ele>
        <time>2025-04-03T09:08:52Z</time>
      </trkpt>
      <trkpt lat="48.51921" lon="1.98">
        <ele>155</ele>
        <time>2025-04-03T09:08:58Z</time>
      </trkpt>
      <trkpt lat="48.51921" lon="1.97986">
        <ele>155</ele>
        <time>2025-04-03T09:09:04Z</time>
      </trkpt>
      <trkpt lat="48.51921" lon="1.97971">
        <ele>155</ele>
        <time>2025-04-03T09:09:10Z</time>
      </trkpt>
      <trkpt lat="48.51921" lon="1.97956">
        <ele>155</ele>
        <time>2025-04-03T09:09:17Z</time>
      </trkpt>
      <trkpt lat="48.5192" lon="1.97942">
        <ele>155</ele>
        <time>2025-04-03T09:09:23Z</time>
      </trkpt>
      <trkpt lat="48.5192" lon="1.97928">
        <ele>155</ele>
        <time>2025-04-03T09:09:29Z</time>
      </trkpt>
      <trkpt lat="48.51921" lon="1.97913">
        <ele>155</ele>
        <time>2025-04-03T09:09:36Z</time>
      </trkpt>
      <trkpt lat="48.51922" lon="1.97897">
        <ele>155</ele>
        <time>2025-04-03T09:09:43Z</time>
      </trkpt>
      <trkpt lat="48.51921" lon="1.97883">
        <ele>155</ele>
        <time>2025-04-03T09:09:49Z</time>
      </trkpt>
      <trkpt lat="48.51922" lon="1.97868">
        <ele>155</ele>
        <time>2025-04-03T09:09:56Z</time>
      </trkpt>
      <trkpt lat="48.51922" lon="1.97854">
        <ele>155</ele>
        <time>2025-04-03T09:10:04Z</time>
      </trkpt>
      <trkpt lat="48.51921" lon="1.97839">
        <ele>155</ele>
        <time>2025-04-03T09:10:12Z</time>
      </trkpt>
      <trkpt lat="48.51917" lon="1.97827">
        <ele>155</ele>
        <time>2025-04-03T09:10:20Z</time>
      </trkpt>
      <trkpt lat="48.51917" lon="1.97813">
        <ele>155</ele>
        <time>2025-04-03T09:10:26Z</time>
      </trkpt>
      <trkpt lat="48.51915" lon="1.97799">
        <ele>154.9</ele>
        <time>2025-04-03T09:10:34Z</time>
      </trkpt>
      <trkpt lat="48.51913" lon="1.97784">
        <ele>154.9</ele>
        <time>2025-04-03T09:10:41Z</time>
      </trkpt>
      <trkpt lat="48.51911" lon="1.97769">
        <ele>154.9</ele>
        <time>2025-04-03T09:10:48Z</time>
      </trkpt>
      <trkpt lat="48.51908" lon="1.97754">
        <ele>155</ele>
        <time>2025-04-03T09:10:55Z</time>
      </trkpt>
      <trkpt lat="48.51906" lon="1.97741">
        <ele>155</ele>
        <time>2025-04-03T09:11:01Z</time>
      </trkpt>
      <trkpt lat="48.51903" lon="1.97727">
        <ele>155</ele>
        <time>2025-04-03T09:11:07Z</time>
      </trkpt>
      <trkpt lat="48.51901" lon="1.97713">
        <ele>155</ele>
        <time>2025-04-03T09:11:14Z</time>
      </trkpt>
      <trkpt lat="48.51898" lon="1.97699">
        <ele>155</ele>
        <time>2025-04-03T09:11:20Z</time>
      </trkpt>
      <trkpt lat="48.51896" lon="1.97686">
        <ele>155</ele>
        <time>2025-04-03T09:11:26Z</time>
      </trkpt>
      <trkpt lat="48.51893" lon="1.97671">
        <ele>155</ele>
        <time>2025-04-03T09:11:33Z</time>
      </trkpt>
      <trkpt lat="48.5189" lon="1.97657">
        <ele>155</ele>
        <time>2025-04-03T09:11:40Z</time>
      </trkpt>
      <trkpt lat="48.51887" lon="1.97644">
        <ele>154.9</ele>
        <time>2025-04-03T09:11:46Z</time>
      </trkpt>
      <trkpt lat="48.51883" lon="1.97631">
        <ele>154.8</ele>
        <time>2025-04-03T09:11:53Z</time>
      </trkpt>
      <trkpt lat="48.5188" lon="1.97616">
        <ele>154.7</ele>
        <time>2025-04-03T09:12:00Z</time>
      </trkpt>
      <trkpt lat="48.51878" lon="1.97602">
        <ele>154.3</ele>
        <time>2025-04-03T09:12:06Z</time>
      </trkpt>
      <trkpt lat="48.51876" lon="1.97588">
        <ele>153.7</ele>
        <time>2025-04-03T09:12:12Z</time>
      </trkpt>
      <trkpt lat="48.51877" lon="1.97572">
        <ele>153.4</ele>
        <time>2025-04-03T09:12:18Z</time>
      </trkpt>
      <trkpt lat="48.51878" lon="1.97557">
        <ele>153.3</ele>
        <time>2025-04-03T09:12:24Z</time>
      </trkpt>
      <trkpt lat="48.51881" lon="1.97544">
        <ele>153.4</ele>
        <time>2025-04-03T09:12:30Z</time>
      </trkpt>
      <trkpt lat="48.51884" lon="1.97531">
        <ele>153.6</ele>
        <time>2025-04-03T09:12:36Z</time>
      </trkpt>
      <trkpt lat="48.51887" lon="1.97518">
        <ele>153.9</ele>
        <time>2025-04-03T09:12:45Z</time>
      </trkpt>
      <trkpt lat="48.51889" lon="1.97504">
        <ele>154</ele>
        <time>2025-04-03T09:12:52Z</time>
      </trkpt>
      <trkpt lat="48.5189" lon="1.97491">
        <ele>154</ele>
        <time>2025-04-03T09:12:59Z</time>
      </trkpt>
      <trkpt lat="48.51891" lon="1.97477">
        <ele>154.1</ele>
        <time>2025-04-03T09:13:06Z</time>
      </trkpt>
      <trkpt lat="48.51889" lon="1.97462">
        <ele>154</ele>
        <time>2025-04-03T09:13:13Z</time>
      </trkpt>
      <trkpt lat="48.51889" lon="1.97447">
        <ele>154</ele>
        <time>2025-04-03T09:13:20Z</time>
      </trkpt>
      <trkpt lat="48.51889" lon="1.97432">
        <ele>154.4</ele>
        <time>2025-04-03T09:13:27Z</time>
      </trkpt>
      <trkpt lat="48.51891" lon="1.97417">
        <ele>155</ele>
        <time>2025-04-03T09:13:34Z</time>
      </trkpt>
      <trkpt lat="48.51891" lon="1.97402">
        <ele>155</ele>
        <time>2025-04-03T09:13:41Z</time>
      </trkpt>
      <trkpt lat="48.51891" lon="1.97386">
        <ele>155</ele>
        <time>2025-04-03T09:13:48Z</time>
      </trkpt>
      <trkpt lat="48.51891" lon="1.97373">
        <ele>155</ele>
        <time>2025-04-03T09:13:54Z</time>
      </trkpt>
      <trkpt lat="48.51892" lon="1.97359">
        <ele>155</ele>
        <time>2025-04-03T09:14:00Z</time>
      </trkpt>
      <trkpt lat="48.51893" lon="1.97344">
        <ele>155</ele>
        <time>2025-04-03T09:14:07Z</time>
      </trkpt>
      <trkpt lat="48.51891" lon="1.9733">
        <ele>155</ele>
        <time>2025-04-03T09:14:14Z</time>
      </trkpt>
      <trkpt lat="48.5189" lon="1.97315">
        <ele>155</ele>
        <time>2025-04-03T09:14:21Z</time>
      </trkpt>
      <trkpt lat="48.5189" lon="1.973">
        <ele>155</ele>
        <time>2025-04-03T09:14:28Z</time>
      </trkpt>
      <trkpt lat="48.5189" lon="1.97287">
        <ele>155</ele>
        <time>2025-04-03T09:14:34Z</time>
      </trkpt>
      <trkpt lat="48.51891" lon="1.97272">
        <ele>155</ele>
        <time>2025-04-03T09:14:41Z</time>
      </trkpt>
      <trkpt lat="48.51885" lon="1.97261">
        <ele>154.8</ele>
        <time>2025-04-03T09:14:50Z</time>
      </trkpt>
      <trkpt lat="48.51883" lon="1.97247">
        <ele>154.8</ele>
        <time>2025-04-03T09:14:56Z</time>
      </trkpt>
      <trkpt lat="48.5188" lon="1.97233">
        <ele>154.7</ele>
        <time>2025-04-03T09:15:03Z</time>
      </trkpt>
      <trkpt lat="48.51877" lon="1.9722">
        <ele>154.5</ele>
        <time>2025-04-03T09:15:10Z</time>
      </trkpt>
      <trkpt lat="48.51871" lon="1.9721">
        <ele>154.1</ele>
        <time>2025-04-03T09:15:17Z</time>
      </trkpt>
      <trkpt lat="48.51867" lon="1.97197">
        <ele>153.5</ele>
        <time>2025-04-03T09:15:23Z</time>
      </trkpt>
      <trkpt lat="48.51861" lon="1.97185">
        <ele>153</ele>
        <time>2025-04-03T09:15:30Z</time>
      </trkpt>
      <trkpt lat="48.51857" lon="1.97171">
        <ele>152.7</ele>
        <time>2025-04-03T09:15:37Z</time>
      </trkpt>
      <trkpt lat="48.51851" lon="1.9716">
        <ele>152.3</ele>
        <time>2025-04-03T09:15:44Z</time>
      </trkpt>
      <trkpt lat="48.51845" lon="1.97148">
        <ele>152.2</ele>
        <time>2025-04-03T09:15:51Z</time>
      </trkpt>
      <trkpt lat="48.51838" lon="1.9714">
        <ele>152.1</ele>
        <time>2025-04-03T09:16:00Z</time>
      </trkpt>
      <trkpt lat="48.51845" lon="1.9713">
        <ele>152.5</ele>
        <time>2025-04-03T09:16:05Z</time>
      </trkpt>
      <trkpt lat="48.51852" lon="1.97121">
        <ele>153.1</ele>
        <time>2025-04-03T09:16:30Z</time>
      </trkpt>
      <trkpt lat="48.51862" lon="1.97117">
        <ele>153.8</ele>
        <time>2025-04-03T09:18:06Z</time>
      </trkpt>
      <trkpt lat="48.51869" lon="1.97108">
        <ele>154</ele>
        <time>2025-04-03T09:18:16Z</time>
      </trkpt>
      <trkpt lat="48.51878" lon="1.97101">
        <ele>154</ele>
        <time>2025-04-03T09:18:24Z</time>
      </trkpt>
      <trkpt lat="48.51886" lon="1.97095">
        <ele>154</ele>
        <time>2025-04-03T09:18:31Z</time>
      </trkpt>
      <trkpt lat="48.51896" lon="1.97089">
        <ele>154.3</ele>
        <time>2025-04-03T09:18:39Z</time>
      </trkpt>
      <trkpt lat="48.51905" lon="1.97083">
        <ele>154.6</ele>
        <time>2025-04-03T09:18:47Z</time>
      </trkpt>
      <trkpt lat="48.51914" lon="1.97081">
        <ele>154.9</ele>
        <time>2025-04-03T09:18:55Z</time>
      </trkpt>
      <trkpt lat="48.51923" lon="1.97086">
        <ele>155.2</ele>
        <time>2025-04-03T09:19:05Z</time>
      </trkpt>
      <trkpt lat="48.51932" lon="1.97087">
        <ele>155.5</ele>
        <time>2025-04-03T09:19:13Z</time>
      </trkpt>
      <trkpt lat="48.51942" lon="1.97087">
        <ele>155.9</ele>
        <time>2025-04-03T09:19:22Z</time>
      </trkpt>
      <trkpt lat="48.51951" lon="1.97088">
        <ele>156</ele>
        <time>2025-04-03T09:19:30Z</time>
      </trkpt>
      <trkpt lat="48.51961" lon="1.97088">
        <ele>156</ele>
        <time>2025-04-03T09:19:38Z</time>
      </trkpt>
      <trkpt lat="48.5197" lon="1.97088">
        <ele>156</ele>
        <time>2025-04-03T09:19:45Z</time>
      </trkpt>
      <trkpt lat="48.5198" lon="1.97089">
        <ele>156</ele>
        <time>2025-04-03T09:19:52Z</time>
      </trkpt>
      <trkpt lat="48.5199" lon="1.97088">
        <ele>156</ele>
        <time>2025-04-03T09:19:59Z</time>
      </trkpt>
      <trkpt lat="48.52" lon="1.97087">
        <ele>156</ele>
        <time>2025-04-03T09:20:06Z</time>
      </trkpt>
      <trkpt lat="48.52011" lon="1.97089">
        <ele>155.3</ele>
        <time>2025-04-03T09:20:14Z</time>
      </trkpt>
      <trkpt lat="48.52021" lon="1.97089">
        <ele>154.7</ele>
        <time>2025-04-03T09:20:21Z</time>
      </trkpt>
      <trkpt lat="48.5203" lon="1.97089">
        <ele>154</ele>
        <time>2025-04-03T09:20:27Z</time>
      </trkpt>
      <trkpt lat="48.5204" lon="1.9709">
        <ele>153.3</ele>
        <time>2025-04-03T09:20:34Z</time>
      </trkpt>
      <trkpt lat="48.52051" lon="1.9709">
        <ele>152.6</ele>
        <time>2025-04-03T09:20:41Z</time>
      </trkpt>
      <trkpt lat="48.52061" lon="1.97093">
        <ele>151.8</ele>
        <time>2025-04-03T09:20:47Z</time>
      </trkpt>
      <trkpt lat="48.5207" lon="1.97094">
        <ele>150.9</ele>
        <time>2025-04-03T09:20:53Z</time>
      </trkpt>
      <trkpt lat="48.5208" lon="1.97094">
        <ele>149.8</ele>
        <time>2025-04-03T09:21:00Z</time>
      </trkpt>
      <trkpt lat="48.52089" lon="1.97098">
        <ele>148.1</ele>
        <time>2025-04-03T09:21:06Z</time>
      </trkpt>
      <trkpt lat="48.52098" lon="1.97101">
        <ele>146.1</ele>
        <time>2025-04-03T09:21:15Z</time>
      </trkpt>
      <trkpt lat="48.52108" lon="1.97101">
        <ele>143.7</ele>
        <time>2025-04-03T09:21:24Z</time>
      </trkpt>
      <trkpt lat="48.52117" lon="1.97101">
        <ele>141.3</ele>
        <time>2025-04-03T09:21:31Z</time>
      </trkpt>
      <trkpt lat="48.52126" lon="1.97101">
        <ele>138.7</ele>
        <time>2025-04-03T09:21:40Z</time>
      </trkpt>
      <trkpt lat="48.52136" lon="1.97101">
        <ele>135.9</ele>
        <time>2025-04-03T09:21:54Z</time>
      </trkpt>
      <trkpt lat="48.52145" lon="1.97104">
        <ele>133.6</ele>
        <time>2025-04-03T09:22:03Z</time>
      </trkpt>
      <trkpt lat="48.52154" lon="1.97103">
        <ele>132</ele>
        <time>2025-04-03T09:22:11Z</time>
      </trkpt>
      <trkpt lat="48.52163" lon="1.97103">
        <ele>130.2</ele>
        <time>2025-04-03T09:22:19Z</time>
      </trkpt>
      <trkpt lat="48.52172" lon="1.97106">
        <ele>129</ele>
        <time>2025-04-03T09:22:26Z</time>
      </trkpt>
      <trkpt lat="48.52182" lon="1.97107">
        <ele>128.3</ele>
        <time>2025-04-03T09:22:34Z</time>
      </trkpt>
      <trkpt lat="48.52192" lon="1.97107">
        <ele>127.6</ele>
        <time>2025-04-03T09:22:42Z</time>
      </trkpt>
      <trkpt lat="48.52202" lon="1.97108">
        <ele>127</ele>
        <time>2025-04-03T09:22:50Z</time>
      </trkpt>
      <trkpt lat="48.52212" lon="1.97109">
        <ele>126.5</ele>
        <time>2025-04-03T09:22:57Z</time>
      </trkpt>
      <trkpt lat="48.52221" lon="1.97111">
        <ele>126.1</ele>
        <time>2025-04-03T09:23:04Z</time>
      </trkpt>
      <trkpt lat="48.52231" lon="1.97113">
        <ele>125.3</ele>
        <time>2025-04-03T09:23:12Z</time>
      </trkpt>
      <trkpt lat="48.52241" lon="1.97114">
        <ele>124.5</ele>
        <time>2025-04-03T09:23:19Z</time>
      </trkpt>
      <trkpt lat="48.52251" lon="1.97115">
        <ele>123.9</ele>
        <time>2025-04-03T09:23:26Z</time>
      </trkpt>
      <trkpt lat="48.52261" lon="1.97117">
        <ele>123.7</ele>
        <time>2025-04-03T09:23:32Z</time>
      </trkpt>
      <trkpt lat="48.52271" lon="1.97117">
        <ele>123.6</ele>
        <time>2025-04-03T09:23:39Z</time>
      </trkpt>
      <trkpt lat="48.5228" lon="1.97117">
        <ele>123.6</ele>
        <time>2025-04-03T09:23:46Z</time>
      </trkpt>
      <trkpt lat="48.52289" lon="1.97121">
        <ele>123.3</ele>
        <time>2025-04-03T09:23:52Z</time>
      </trkpt>
      <trkpt lat="48.52298" lon="1.97122">
        <ele>123.2</ele>
        <time>2025-04-03T09:24:00Z</time>
      </trkpt>
      <trkpt lat="48.52307" lon="1.97125">
        <ele>123</ele>
        <time>2025-04-03T09:24:06Z</time>
      </trkpt>
      <trkpt lat="48.52317" lon="1.97124">
        <ele>123</ele>
        <time>2025-04-03T09:24:13Z</time>
      </trkpt>
      <trkpt lat="48.52327" lon="1.97127">
        <ele>122.9</ele>
        <time>2025-04-03T09:24:20Z</time>
      </trkpt>
      <trkpt lat="48.52336" lon="1.97128">
        <ele>122.7</ele>
        <time>2025-04-03T09:24:26Z</time>
      </trkpt>
      <trkpt lat="48.52346" lon="1.97129">
        <ele>122.2</ele>
        <time>2025-04-03T09:24:32Z</time>
      </trkpt>
      <trkpt lat="48.52356" lon="1.9713">
        <ele>121.8</ele>
        <time>2025-04-03T09:24:39Z</time>
      </trkpt>
      <trkpt lat="48.52366" lon="1.97131">
        <ele>121.6</ele>
        <time>2025-04-03T09:24:45Z</time>
      </trkpt>
      <trkpt lat="48.52375" lon="1.97133">
        <ele>121.5</ele>
        <time>2025-04-03T09:24:52Z</time>
      </trkpt>
      <trkpt lat="48.52385" lon="1.97132">
        <ele>121.5</ele>
        <time>2025-04-03T09:24:59Z</time>
      </trkpt>
      <trkpt lat="48.52395" lon="1.97134">
        <ele>121.6</ele>
        <time>2025-04-03T09:25:06Z</time>
      </trkpt>
      <trkpt lat="48.52405" lon="1.97136">
        <ele>121.9</ele>
        <time>2025-04-03T09:25:13Z</time>
      </trkpt>
      <trkpt lat="48.52415" lon="1.97137">
        <ele>122.1</ele>
        <time>2025-04-03T09:25:20Z</time>
      </trkpt>
      <trkpt lat="48.52424" lon="1.97136">
        <ele>122.6</ele>
        <time>2025-04-03T09:25:27Z</time>
      </trkpt>
      <trkpt lat="48.52433" lon="1.97136">
        <ele>122.9</ele>
        <time>2025-04-03T09:25:34Z</time>
      </trkpt>
      <trkpt lat="48.52443" lon="1.97139">
        <ele>122.9</ele>
        <time>2025-04-03T09:25:40Z</time>
      </trkpt>
      <trkpt lat="48.52452" lon="1.9714">
        <ele>123.2</ele>
        <time>2025-04-03T09:25:47Z</time>
      </trkpt>
      <trkpt lat="48.52462" lon="1.9714">
        <ele>123.5</ele>
        <time>2025-04-03T09:25:54Z</time>
      </trkpt>
      <trkpt lat="48.52472" lon="1.9714">
        <ele>123.9</ele>
        <time>2025-04-03T09:26:01Z</time>
      </trkpt>
      <trkpt lat="48.52481" lon="1.97144">
        <ele>123.5</ele>
        <time>2025-04-03T09:26:07Z</time>
      </trkpt>
      <trkpt lat="48.52491" lon="1.97145">
        <ele>123.3</ele>
        <time>2025-04-03T09:26:14Z</time>
      </trkpt>
      <trkpt lat="48.52501" lon="1.97146">
        <ele>123.2</ele>
        <time>2025-04-03T09:26:20Z</time>
      </trkpt>
      <trkpt lat="48.5251" lon="1.97148">
        <ele>123</ele>
        <time>2025-04-03T09:26:26Z</time>
      </trkpt>
      <trkpt lat="48.5252" lon="1.97152">
        <ele>122.6</ele>
        <time>2025-04-03T09:26:32Z</time>
      </trkpt>
      <trkpt lat="48.52529" lon="1.97151">
        <ele>122.6</ele>
        <time>2025-04-03T09:26:38Z</time>
      </trkpt>
      <trkpt lat="48.52539" lon="1.97152">
        <ele>122.4</ele>
        <time>2025-04-03T09:26:44Z</time>
      </trkpt>
      <trkpt lat="48.52548" lon="1.97155">
        <ele>122</ele>
        <time>2025-04-03T09:26:50Z</time>
      </trkpt>
      <trkpt lat="48.52557" lon="1.97156">
        <ele>121.7</ele>
        <time>2025-04-03T09:26:56Z</time>
      </trkpt>
      <trkpt lat="48.52567" lon="1.97158">
        <ele>121.4</ele>
        <time>2025-04-03T09:27:03Z</time>
      </trkpt>
      <trkpt lat="48.52576" lon="1.97158">
        <ele>121.2</ele>
        <time>2025-04-03T09:27:10Z</time>
      </trkpt>
      <trkpt lat="48.52586" lon="1.97159">
        <ele>120.9</ele>
        <time>2025-04-03T09:27:17Z</time>
      </trkpt>
      <trkpt lat="48.52596" lon="1.9716">
        <ele>120.4</ele>
        <time>2025-04-03T09:27:24Z</time>
      </trkpt>
      <trkpt lat="48.52605" lon="1.97162">
        <ele>120.1</ele>
        <time>2025-04-03T09:27:30Z</time>
      </trkpt>
      <trkpt lat="48.52614" lon="1.97167">
        <ele>119.8</ele>
        <time>2025-04-03T09:27:37Z</time>
      </trkpt>
      <trkpt lat="48.52624" lon="1.97168">
        <ele>119</ele>
        <time>2025-04-03T09:28:04Z</time>
      </trkpt>
      <trkpt lat="48.52634" lon="1.97167">
        <ele>118.4</ele>
        <time>2025-04-03T09:28:28Z</time>
      </trkpt>
      <trkpt lat="48.52642" lon="1.97162">
        <ele>117.9</ele>
        <time>2025-04-03T09:28:38Z</time>
      </trkpt>
      <trkpt lat="48.52652" lon="1.9716">
        <ele>117.5</ele>
        <time>2025-04-03T09:28:46Z</time>
      </trkpt>
      <trkpt lat="48.52662" lon="1.97159">
        <ele>117.2</ele>
        <time>2025-04-03T09:28:52Z</time>
      </trkpt>
      <trkpt lat="48.52672" lon="1.9716">
        <ele>116.7</ele>
        <time>2025-04-03T09:28:58Z</time>
      </trkpt>
      <trkpt lat="48.52682" lon="1.97159">
        <ele>116.1</ele>
        <time>2025-04-03T09:29:05Z</time>
      </trkpt>
      <trkpt lat="48.52691" lon="1.97157">
        <ele>115.5</ele>
        <time>2025-04-03T09:29:12Z</time>
      </trkpt>
      <trkpt lat="48.527" lon="1.97156">
        <ele>115</ele>
        <time>2025-04-03T09:29:19Z</time>
      </trkpt>
      <trkpt lat="48.52709" lon="1.97153">
        <ele>114.4</ele>
        <time>2025-04-03T09:29:26Z</time>
      </trkpt>
      <trkpt lat="48.52719" lon="1.97152">
        <ele>113.8</ele>
        <time>2025-04-03T09:29:33Z</time>
      </trkpt>
      <trkpt lat="48.52729" lon="1.97151">
        <ele>113.2</ele>
        <time>2025-04-03T09:29:40Z</time>
      </trkpt>
      <trkpt lat="48.52739" lon="1.9715">
        <ele>112.6</ele>
        <time>2025-04-03T09:29:47Z</time>
      </trkpt>
      <trkpt lat="48.52743" lon="1.97138">
        <ele>112.6</ele>
        <time>2025-04-03T09:29:57Z</time>
      </trkpt>
      <trkpt lat="48.52742" lon="1.97122">
        <ele>113</ele>
        <time>2025-04-03T09:30:05Z</time>
      </trkpt>
      <trkpt lat="48.52744" lon="1.97108">
        <ele>113.3</ele>
        <time>2025-04-03T09:30:12Z</time>
      </trkpt>
      <trkpt lat="48.52745" lon="1.97093">
        <ele>113.3</ele>
        <time>2025-04-03T09:30:19Z</time>
      </trkpt>
      <trkpt lat="48.52746" lon="1.97077">
        <ele>113.3</ele>
        <time>2025-04-03T09:30:26Z</time>
      </trkpt>
      <trkpt lat="48.52748" lon="1.97064">
        <ele>113.2</ele>
        <time>2025-04-03T09:30:32Z</time>
      </trkpt>
      <trkpt lat="48.52749" lon="1.97049">
        <ele>113.1</ele>
        <time>2025-04-03T09:30:39Z</time>
      </trkpt>
      <trkpt lat="48.5275" lon="1.97034">
        <ele>113</ele>
        <time>2025-04-03T09:30:46Z</time>
      </trkpt>
      <trkpt lat="48.52751" lon="1.97018">
        <ele>112.9</ele>
        <time>2025-04-03T09:30:53Z</time>
      </trkpt>
      <trkpt lat="48.52752" lon="1.97005">
        <ele>112.8</ele>
        <time>2025-04-03T09:30:59Z</time>
      </trkpt>
      <trkpt lat="48.52754" lon="1.9699">
        <ele>112.3</ele>
        <time>2025-04-03T09:31:06Z</time>
      </trkpt>
      <trkpt lat="48.52756" lon="1.96975">
        <ele>111.9</ele>
        <time>2025-04-03T09:31:13Z</time>
      </trkpt>
      <trkpt lat="48.52756" lon="1.9696">
        <ele>111.7</ele>
        <time>2025-04-03T09:31:20Z</time>
      </trkpt>
      <trkpt lat="48.52758" lon="1.96945">
        <ele>111.4</ele>
        <time>2025-04-03T09:31:27Z</time>
      </trkpt>
      <trkpt lat="48.52758" lon="1.9693">
        <ele>111</ele>
        <time>2025-04-03T09:31:34Z</time>
      </trkpt>
      <trkpt lat="48.5276" lon="1.96915">
        <ele>110.6</ele>
        <time>2025-04-03T09:31:41Z</time>
      </trkpt>
      <trkpt lat="48.52761" lon="1.96901">
        <ele>110.3</ele>
        <time>2025-04-03T09:31:48Z</time>
      </trkpt>
      <trkpt lat="48.52761" lon="1.96887">
        <ele>110</ele>
        <time>2025-04-03T09:31:55Z</time>
      </trkpt>
      <trkpt lat="48.52763" lon="1.96872">
        <ele>110.3</ele>
        <time>2025-04-03T09:32:02Z</time>
      </trkpt>
      <trkpt lat="48.52764" lon="1.96857">
        <ele>110.6</ele>
        <time>2025-04-03T09:32:09Z</time>
      </trkpt>
      <trkpt lat="48.52765" lon="1.96843">
        <ele>111.1</ele>
        <time>2025-04-03T09:32:16Z</time>
      </trkpt>
      <trkpt lat="48.52767" lon="1.96828">
        <ele>111.7</ele>
        <time>2025-04-03T09:32:23Z</time>
      </trkpt>
      <trkpt lat="48.52768" lon="1.96813">
        <ele>112.3</ele>
        <time>2025-04-03T09:32:30Z</time>
      </trkpt>
      <trkpt lat="48.5277" lon="1.96797">
        <ele>113.1</ele>
        <time>2025-04-03T09:32:37Z</time>
      </trkpt>
      <trkpt lat="48.52771" lon="1.96782">
        <ele>114</ele>
        <time>2025-04-03T09:32:44Z</time>
      </trkpt>
      <trkpt lat="48.52772" lon="1.96767">
        <ele>114.7</ele>
        <time>2025-04-03T09:32:51Z</time>
      </trkpt>
      <trkpt lat="48.52772" lon="1.96751">
        <ele>115.3</ele>
        <time>2025-04-03T09:32:58Z</time>
      </trkpt>
      <trkpt lat="48.52773" lon="1.96738">
        <ele>115.8</ele>
        <time>2025-04-03T09:33:04Z</time>
      </trkpt>
      <trkpt lat="48.52774" lon="1.96723">
        <ele>116.2</ele>
        <time>2025-04-03T09:33:11Z</time>
      </trkpt>
      <trkpt lat="48.52775" lon="1.96709">
        <ele>116.2</ele>
        <time>2025-04-03T09:33:18Z</time>
      </trkpt>
      <trkpt lat="48.52777" lon="1.96693">
        <ele>116.1</ele>
        <time>2025-04-03T09:33:25Z</time>
      </trkpt>
      <trkpt lat="48.52778" lon="1.96679">
        <ele>115.9</ele>
        <time>2025-04-03T09:33:32Z</time>
      </trkpt>
      <trkpt lat="48.5278" lon="1.96665">
        <ele>115.8</ele>
        <time>2025-04-03T09:33:39Z</time>
      </trkpt>
      <trkpt lat="48.52783" lon="1.9665">
        <ele>115.6</ele>
        <time>2025-04-03T09:33:46Z</time>
      </trkpt>
      <trkpt lat="48.52786" lon="1.96636">
        <ele>115.3</ele>
        <time>2025-04-03T09:33:53Z</time>
      </trkpt>
      <trkpt lat="48.52787" lon="1.9662">
        <ele>114.7</ele>
        <time>2025-04-03T09:34:00Z</time>
      </trkpt>
      <trkpt lat="48.52789" lon="1.96606">
        <ele>114.1</ele>
        <time>2025-04-03T09:34:06Z</time>
      </trkpt>
      <trkpt lat="48.52792" lon="1.96593">
        <ele>113.7</ele>
        <time>2025-04-03T09:34:12Z</time>
      </trkpt>
      <trkpt lat="48.52793" lon="1.96578">
        <ele>113.3</ele>
        <time>2025-04-03T09:34:19Z</time>
      </trkpt>
      <trkpt lat="48.52795" lon="1.96564">
        <ele>112.7</ele>
        <time>2025-04-03T09:34:26Z</time>
      </trkpt>
      <trkpt lat="48.52796" lon="1.96549">
        <ele>112.3</ele>
        <time>2025-04-03T09:34:33Z</time>
      </trkpt>
      <trkpt lat="48.52796" lon="1.96534">
        <ele>112.4</ele>
        <time>2025-04-03T09:34:40Z</time>
      </trkpt>
      <trkpt lat="48.52796" lon="1.96521">
        <ele>112.4</ele>
        <time>2025-04-03T09:34:47Z</time>
      </trkpt>
      <trkpt lat="48.52798" lon="1.96505">
        <ele>112.5</ele>
        <time>2025-04-03T09:34:54Z</time>
      </trkpt>
      <trkpt lat="48.528" lon="1.96492">
        <ele>112.7</ele>
        <time>2025-04-03T09:35:00Z</time>
      </trkpt>
      <trkpt lat="48.52802" lon="1.96477">
        <ele>113.1</ele>
        <time>2025-04-03T09:35:07Z</time>
      </trkpt>
      <trkpt lat="48.52802" lon="1.96462">
        <ele>113.3</ele>
        <time>2025-04-03T09:35:14Z</time>
      </trkpt>
      <trkpt lat="48.52801" lon="1.96447">
        <ele>113.6</ele>
        <time>2025-04-03T09:35:21Z</time>
      </trkpt>
      <trkpt lat="48.52801" lon="1.96433">
        <ele>113.7</ele>
        <time>2025-04-03T09:35:27Z</time>
      </trkpt>
      <trkpt lat="48.528" lon="1.96417">
        <ele>114</ele>
        <time>2025-04-03T09:35:34Z</time>
      </trkpt>
      <trkpt lat="48.52801" lon="1.96401">
        <ele>114</ele>
        <time>2025-04-03T09:35:40Z</time>
      </trkpt>
      <trkpt lat="48.52803" lon="1.96387">
        <ele>113.6</ele>
        <time>2025-04-03T09:35:46Z</time>
      </trkpt>
      <trkpt lat="48.52805" lon="1.96373">
        <ele>113</ele>
        <time>2025-04-03T09:35:52Z</time>
      </trkpt>
      <trkpt lat="48.52806" lon="1.96359">
        <ele>113</ele>
        <time>2025-04-03T09:35:58Z</time>
      </trkpt>
      <trkpt lat="48.52809" lon="1.96345">
        <ele>113.2</ele>
        <time>2025-04-03T09:36:05Z</time>
      </trkpt>
      <trkpt lat="48.52811" lon="1.96331">
        <ele>113.3</ele>
        <time>2025-04-03T09:36:11Z</time>
      </trkpt>
      <trkpt lat="48.52813" lon="1.96317">
        <ele>113</ele>
        <time>2025-04-03T09:36:17Z</time>
      </trkpt>
      <trkpt lat="48.52816" lon="1.96303">
        <ele>113</ele>
        <time>2025-04-03T09:36:23Z</time>
      </trkpt>
      <trkpt lat="48.52819" lon="1.96289">
        <ele>112.9</ele>
        <time>2025-04-03T09:36:29Z</time>
      </trkpt>
      <trkpt lat="48.52823" lon="1.96276">
        <ele>112.5</ele>
        <time>2025-04-03T09:36:36Z</time>
      </trkpt>
      <trkpt lat="48.52824" lon="1.96262">
        <ele>112.4</ele>
        <time>2025-04-03T09:36:44Z</time>
      </trkpt>
      <trkpt lat="48.52823" lon="1.96247">
        <ele>112.3</ele>
        <time>2025-04-03T09:36:51Z</time>
      </trkpt>
      <trkpt lat="48.52824" lon="1.96232">
        <ele>111.5</ele>
        <time>2025-04-03T09:36:58Z</time>
      </trkpt>
      <trkpt lat="48.52825" lon="1.96218">
        <ele>110.8</ele>
        <time>2025-04-03T09:37:04Z</time>
      </trkpt>
      <trkpt lat="48.52826" lon="1.96203">
        <ele>110.6</ele>
        <time>2025-04-03T09:37:11Z</time>
      </trkpt>
      <trkpt lat="48.52827" lon="1.96189">
        <ele>110.5</ele>
        <time>2025-04-03T09:37:18Z</time>
      </trkpt>
      <trkpt lat="48.52833" lon="1.96179">
        <ele>110</ele>
        <time>2025-04-03T09:38:40Z</time>
      </trkpt>
      <trkpt lat="48.52842" lon="1.9618">
        <ele>109.4</ele>
        <time>2025-04-03T09:38:51Z</time>
      </trkpt>
      <trkpt lat="48.52852" lon="1.96178">
        <ele>108.7</ele>
        <time>2025-04-03T09:39:01Z</time>
      </trkpt>
      <trkpt lat="48.52861" lon="1.96181">
        <ele>108</ele>
        <time>2025-04-03T09:39:08Z</time>
      </trkpt>
      <trkpt lat="48.5287" lon="1.9618">
        <ele>107.8</ele>
        <time>2025-04-03T09:39:15Z</time>
      </trkpt>
      <trkpt lat="48.5288" lon="1.96181">
        <ele>107.6</ele>
        <time>2025-04-03T09:39:22Z</time>
      </trkpt>
      <trkpt lat="48.5289" lon="1.96184">
        <ele>107.4</ele>
        <time>2025-04-03T09:39:30Z</time>
      </trkpt>
      <trkpt lat="48.529" lon="1.96184">
        <ele>107.2</ele>
        <time>2025-04-03T09:39:38Z</time>
      </trkpt>
      <trkpt lat="48.52909" lon="1.96186">
        <ele>107.1</ele>
        <time>2025-04-03T09:39:45Z</time>
      </trkpt>
      <trkpt lat="48.52918" lon="1.96186">
        <ele>107</ele>
        <time>2025-04-03T09:39:52Z</time>
      </trkpt>
      <trkpt lat="48.52927" lon="1.96189">
        <ele>107</ele>
        <time>2025-04-03T09:39:59Z</time>
      </trkpt>
      <trkpt lat="48.52937" lon="1.96191">
        <ele>107</ele>
        <time>2025-04-03T09:40:06Z</time>
      </trkpt>
      <trkpt lat="48.52946" lon="1.96195">
        <ele>106.8</ele>
        <time>2025-04-03T09:40:13Z</time>
      </trkpt>
      <trkpt lat="48.52956" lon="1.96199">
        <ele>106.1</ele>
        <time>2025-04-03T09:40:20Z</time>
      </trkpt>
      <trkpt lat="48.52965" lon="1.96201">
        <ele>105.5</ele>
        <time>2025-04-03T09:40:27Z</time>
      </trkpt>
      <trkpt lat="48.52974" lon="1.96204">
        <ele>104.9</ele>
        <time>2025-04-03T09:40:34Z</time>
      </trkpt>
      <trkpt lat="48.52983" lon="1.96201">
        <ele>104.6</ele>
        <time>2025-04-03T09:40:48Z</time>
      </trkpt>
      <trkpt lat="48.52992" lon="1.96196">
        <ele>104.3</ele>
        <time>2025-04-03T09:40:58Z</time>
      </trkpt>
      <trkpt lat="48.53002" lon="1.96195">
        <ele>104.1</ele>
        <time>2025-04-03T09:41:06Z</time>
      </trkpt>
      <trkpt lat="48.53011" lon="1.96195">
        <ele>104.4</ele>
        <time>2025-04-03T09:41:13Z</time>
      </trkpt>
      <trkpt lat="48.5302" lon="1.96197">
        <ele>104.7</ele>
        <time>2025-04-03T09:41:20Z</time>
      </trkpt>
      <trkpt lat="48.5303" lon="1.96198">
        <ele>104.9</ele>
        <time>2025-04-03T09:41:27Z</time>
      </trkpt>
      <trkpt lat="48.53039" lon="1.96199">
        <ele>104.9</ele>
        <time>2025-04-03T09:41:34Z</time>
      </trkpt>
      <trkpt lat="48.53049" lon="1.96199">
        <ele>105</ele>
        <time>2025-04-03T09:41:41Z</time>
      </trkpt>
      <trkpt lat="48.53059" lon="1.96198">
        <ele>105</ele>
        <time>2025-04-03T09:41:48Z</time>
      </trkpt>
      <trkpt lat="48.53069" lon="1.96198">
        <ele>105</ele>
        <time>2025-04-03T09:41:56Z</time>
      </trkpt>
      <trkpt lat="48.53079" lon="1.962">
        <ele>105</ele>
        <time>2025-04-03T09:42:04Z</time>
      </trkpt>
      <trkpt lat="48.53089" lon="1.96202">
        <ele>105.3</ele>
        <time>2025-04-03T09:42:12Z</time>
      </trkpt>
      <trkpt lat="48.53096" lon="1.96194">
        <ele>105.9</ele>
        <time>2025-04-03T09:42:21Z</time>
      </trkpt>
      <trkpt lat="48.53096" lon="1.96179">
        <ele>106.2</ele>
        <time>2025-04-03T09:42:29Z</time>
      </trkpt>
      <trkpt lat="48.53096" lon="1.96165">
        <ele>106.3</ele>
        <time>2025-04-03T09:42:36Z</time>
      </trkpt>
      <trkpt lat="48.53095" lon="1.96151">
        <ele>106.3</ele>
        <time>2025-04-03T09:42:43Z</time>
      </trkpt>
      <trkpt lat="48.53099" lon="1.96139">
        <ele>106.7</ele>
        <time>2025-04-03T09:42:51Z</time>
      </trkpt>
      <trkpt lat="48.53094" lon="1.96126">
        <ele>106.5</ele>
        <time>2025-04-03T09:43:03Z</time>
      </trkpt>
      <trkpt lat="48.53103" lon="1.96121">
        <ele>107.3</ele>
        <time>2025-04-03T09:43:14Z</time>
      </trkpt>
      <trkpt lat="48.53112" lon="1.96124">
        <ele>108</ele>
        <time>2025-04-03T09:43:25Z</time>
      </trkpt>
    </trkseg>
  </trk>
</gpx>